<?xml version="1.0" encoding="UTF-8" standalone="no" ?>
<gpx xmlns="http://www.topografix.com/GPX/1/1" xmlns:xsi="http://www.w3.org/2001/XMLSchema-instance" xsi:schemaLocation="http://www.topografix.com/GPX/1/1 http://www.topografix.com/GPX/1/1/gpx.xsd" version="1.1" creator="VisuGPX - https://www.visugpx.com">
  <metadata>
    <name>68-8km_2024</name>
  </metadata>
  <trk>
    <name><![CDATA[68-8km_2024]]></name>
    <extensions>
      <line xmlns="http://www.topografix.com/GPX/gpx_style/0/2">
        <color>0000FF</color>
        <width>4</width>
      </line>
    </extensions>
    <trkseg>
      <trkpt lat="50.6506" lon="2.83131">
        <ele>17.4</ele>
        <time>2024-07-31T12:18:15.903Z</time>
      </trkpt>
      <trkpt lat="50.65063" lon="2.83126">
        <ele>17.4</ele>
        <time>2024-07-31T12:18:20.913Z</time>
      </trkpt>
      <trkpt lat="50.65071" lon="2.83117">
        <ele>17.4</ele>
        <time>2024-07-31T12:18:31.545Z</time>
      </trkpt>
      <trkpt lat="50.65057" lon="2.83085">
        <ele>17.4</ele>
        <time>2024-07-31T12:18:35.165Z</time>
      </trkpt>
      <trkpt lat="50.65054" lon="2.83079">
        <ele>17.4</ele>
        <time>2024-07-31T12:18:35.996Z</time>
      </trkpt>
      <trkpt lat="50.65006" lon="2.82971">
        <ele>17.387073</ele>
        <time>2024-07-31T12:18:48.609Z</time>
      </trkpt>
      <trkpt lat="50.64921" lon="2.82822">
        <ele>17.342938</ele>
        <time>2024-07-31T12:19:07.353Z</time>
      </trkpt>
      <trkpt lat="50.64889" lon="2.82766">
        <ele>17.282546</ele>
        <time>2024-07-31T12:19:14.140Z</time>
      </trkpt>
      <trkpt lat="50.64756" lon="2.82615">
        <ele>17.021968</ele>
        <time>2024-07-31T12:19:37.197Z</time>
      </trkpt>
      <trkpt lat="50.64728" lon="2.82572">
        <ele>17.005545</ele>
        <time>2024-07-31T12:19:42.879Z</time>
      </trkpt>
      <trkpt lat="50.64572" lon="2.82303">
        <ele>16.981051</ele>
        <time>2024-07-31T12:20:17.156Z</time>
      </trkpt>
      <trkpt lat="50.64453" lon="2.82144">
        <ele>17.043266</ele>
        <time>2024-07-31T12:20:40.330Z</time>
      </trkpt>
      <trkpt lat="50.64275" lon="2.81979">
        <ele>17.157695</ele>
        <time>2024-07-31T12:21:11.815Z</time>
      </trkpt>
      <trkpt lat="50.64121" lon="2.81709">
        <ele>17.167106</ele>
        <time>2024-07-31T12:21:45.818Z</time>
      </trkpt>
      <trkpt lat="50.63988" lon="2.81511">
        <ele>16.953944</ele>
        <time>2024-07-31T12:22:12.282Z</time>
      </trkpt>
      <trkpt lat="50.63924" lon="2.81294">
        <ele>16.56291</ele>
        <time>2024-07-31T12:22:33.458Z</time>
      </trkpt>
      <trkpt lat="50.63887" lon="2.81129">
        <ele>16.403575</ele>
        <time>2024-07-31T12:22:48.606Z</time>
      </trkpt>
      <trkpt lat="50.63812" lon="2.80966">
        <ele>16.39329</ele>
        <time>2024-07-31T12:23:07.911Z</time>
      </trkpt>
      <trkpt lat="50.63777" lon="2.80911">
        <ele>16.568574</ele>
        <time>2024-07-31T12:23:15.922Z</time>
      </trkpt>
      <trkpt lat="50.63698" lon="2.80799">
        <ele>16.951233</ele>
        <time>2024-07-31T12:23:33.619Z</time>
      </trkpt>
      <trkpt lat="50.63643" lon="2.80722">
        <ele>17.06231</ele>
        <time>2024-07-31T12:23:45.477Z</time>
      </trkpt>
      <trkpt lat="50.63411" lon="2.80523">
        <ele>17.087141</ele>
        <time>2024-07-31T12:24:24.469Z</time>
      </trkpt>
      <trkpt lat="50.63347" lon="2.80435">
        <ele>16.969321</ele>
        <time>2024-07-31T12:24:36.111Z</time>
      </trkpt>
      <trkpt lat="50.63406" lon="2.80297">
        <ele>16.779741</ele>
        <time>2024-07-31T12:24:51.229Z</time>
      </trkpt>
      <trkpt lat="50.63464" lon="2.80176">
        <ele>16.614975</ele>
        <time>2024-07-31T12:25:04.787Z</time>
      </trkpt>
      <trkpt lat="50.63531" lon="2.80065">
        <ele>16.45103</ele>
        <time>2024-07-31T12:25:18.852Z</time>
      </trkpt>
      <trkpt lat="50.63592" lon="2.79943">
        <ele>16.275121</ele>
        <time>2024-07-31T12:25:32.519Z</time>
      </trkpt>
      <trkpt lat="50.63624" lon="2.79897">
        <ele>16.195906</ele>
        <time>2024-07-31T12:25:38.714Z</time>
      </trkpt>
      <trkpt lat="50.63661" lon="2.79846">
        <ele>16.114453</ele>
        <time>2024-07-31T12:25:45.730Z</time>
      </trkpt>
      <trkpt lat="50.63626" lon="2.79733">
        <ele>16.194828</ele>
        <time>2024-07-31T12:25:57.683Z</time>
      </trkpt>
      <trkpt lat="50.63617" lon="2.79666">
        <ele>16.238169</ele>
        <time>2024-07-31T12:26:04.502Z</time>
      </trkpt>
      <trkpt lat="50.63603" lon="2.79621">
        <ele>16.270418</ele>
        <time>2024-07-31T12:26:09.575Z</time>
      </trkpt>
      <trkpt lat="50.63536" lon="2.79466">
        <ele>16.423202</ele>
        <time>2024-07-31T12:26:27.736Z</time>
      </trkpt>
      <trkpt lat="50.63529" lon="2.79455">
        <ele>16.436402</ele>
        <time>2024-07-31T12:26:29.216Z</time>
      </trkpt>
      <trkpt lat="50.63498" lon="2.79421">
        <ele>16.488603</ele>
        <time>2024-07-31T12:26:35.147Z</time>
      </trkpt>
      <trkpt lat="50.63483" lon="2.79414">
        <ele>16.509638</ele>
        <time>2024-07-31T12:26:37.510Z</time>
      </trkpt>
      <trkpt lat="50.63454" lon="2.79385">
        <ele>16.542515</ele>
        <time>2024-07-31T12:26:42.695Z</time>
      </trkpt>
      <trkpt lat="50.63433" lon="2.79351">
        <ele>16.554232</ele>
        <time>2024-07-31T12:26:47.179Z</time>
      </trkpt>
      <trkpt lat="50.63386" lon="2.79271">
        <ele>16.581254</ele>
        <time>2024-07-31T12:26:57.344Z</time>
      </trkpt>
      <trkpt lat="50.63373" lon="2.79219">
        <ele>16.59498</ele>
        <time>2024-07-31T12:27:02.756Z</time>
      </trkpt>
      <trkpt lat="50.63367" lon="2.79197">
        <ele>16.60089</ele>
        <time>2024-07-31T12:27:05.120Z</time>
      </trkpt>
      <trkpt lat="50.63352" lon="2.79171">
        <ele>16.606564</ele>
        <time>2024-07-31T12:27:08.589Z</time>
      </trkpt>
      <trkpt lat="50.63303" lon="2.79111">
        <ele>16.600275</ele>
        <time>2024-07-31T12:27:17.779Z</time>
      </trkpt>
      <trkpt lat="50.63232" lon="2.79032">
        <ele>16.591326</ele>
        <time>2024-07-31T12:27:30.448Z</time>
      </trkpt>
      <trkpt lat="50.6312" lon="2.78884">
        <ele>16.472925</ele>
        <time>2024-07-31T12:27:51.708Z</time>
      </trkpt>
      <trkpt lat="50.63005" lon="2.78747">
        <ele>16.313927</ele>
        <time>2024-07-31T12:28:12.511Z</time>
      </trkpt>
      <trkpt lat="50.62997" lon="2.78727">
        <ele>16.296163</ele>
        <time>2024-07-31T12:28:14.513Z</time>
      </trkpt>
      <trkpt lat="50.62998" lon="2.78701">
        <ele>16.276227</ele>
        <time>2024-07-31T12:28:16.988Z</time>
      </trkpt>
      <trkpt lat="50.63003" lon="2.78672">
        <ele>16.252972</ele>
        <time>2024-07-31T12:28:19.666Z</time>
      </trkpt>
      <trkpt lat="50.63005" lon="2.78639">
        <ele>16.227537</ele>
        <time>2024-07-31T12:28:22.829Z</time>
      </trkpt>
      <trkpt lat="50.63014" lon="2.78625">
        <ele>16.212052</ele>
        <time>2024-07-31T12:28:24.591Z</time>
      </trkpt>
      <trkpt lat="50.63173" lon="2.78261">
        <ele>16.119502</ele>
        <time>2024-07-31T12:29:05.696Z</time>
      </trkpt>
      <trkpt lat="50.63236" lon="2.78134">
        <ele>16.188428</ele>
        <time>2024-07-31T12:29:21.433Z</time>
      </trkpt>
      <trkpt lat="50.63304" lon="2.78005">
        <ele>16.315669</ele>
        <time>2024-07-31T12:29:37.882Z</time>
      </trkpt>
      <trkpt lat="50.6338" lon="2.77875">
        <ele>16.324654</ele>
        <time>2024-07-31T12:29:54.628Z</time>
      </trkpt>
      <trkpt lat="50.63481" lon="2.77686">
        <ele>16.149581</ele>
        <time>2024-07-31T12:30:16.752Z</time>
      </trkpt>
      <trkpt lat="50.63633" lon="2.77395">
        <ele>16.039615</ele>
        <time>2024-07-31T12:30:51.625Z</time>
      </trkpt>
      <trkpt lat="50.63679" lon="2.77302">
        <ele>16.041811</ele>
        <time>2024-07-31T12:31:02.857Z</time>
      </trkpt>
      <trkpt lat="50.63663" lon="2.77282">
        <ele>16.048184</ele>
        <time>2024-07-31T12:31:05.865Z</time>
      </trkpt>
      <trkpt lat="50.63576" lon="2.77209">
        <ele>16.218179</ele>
        <time>2024-07-31T12:31:21.097Z</time>
      </trkpt>
      <trkpt lat="50.63559" lon="2.77196">
        <ele>16.251728</ele>
        <time>2024-07-31T12:31:24.123Z</time>
      </trkpt>
      <trkpt lat="50.63524" lon="2.77179">
        <ele>16.314963</ele>
        <time>2024-07-31T12:31:29.789Z</time>
      </trkpt>
      <trkpt lat="50.63495" lon="2.77159">
        <ele>16.394854</ele>
        <time>2024-07-31T12:31:34.781Z</time>
      </trkpt>
      <trkpt lat="50.63419" lon="2.77088">
        <ele>16.791405</ele>
        <time>2024-07-31T12:31:49.395Z</time>
      </trkpt>
      <trkpt lat="50.63371" lon="2.77052">
        <ele>17.026326</ele>
        <time>2024-07-31T12:31:58.555Z</time>
      </trkpt>
      <trkpt lat="50.63318" lon="2.77018">
        <ele>17.203268</ele>
        <time>2024-07-31T12:32:08.393Z</time>
      </trkpt>
      <trkpt lat="50.63318" lon="2.77012">
        <ele>17.209225</ele>
        <time>2024-07-31T12:32:09.064Z</time>
      </trkpt>
      <trkpt lat="50.63313" lon="2.77007">
        <ele>17.218112</ele>
        <time>2024-07-31T12:32:09.932Z</time>
      </trkpt>
      <trkpt lat="50.63321" lon="2.76986">
        <ele>17.242797</ele>
        <time>2024-07-31T12:32:12.321Z</time>
      </trkpt>
      <trkpt lat="50.6334" lon="2.76909">
        <ele>17.327383</ele>
        <time>2024-07-31T12:32:20.726Z</time>
      </trkpt>
      <trkpt lat="50.63352" lon="2.76858">
        <ele>17.383179</ele>
        <time>2024-07-31T12:32:25.976Z</time>
      </trkpt>
      <trkpt lat="50.6336" lon="2.76824">
        <ele>17.42092</ele>
        <time>2024-07-31T12:32:29.299Z</time>
      </trkpt>
      <trkpt lat="50.63422" lon="2.76575">
        <ele>16.794803</ele>
        <time>2024-07-31T12:32:51.872Z</time>
      </trkpt>
      <trkpt lat="50.63439" lon="2.7648">
        <ele>16.547538</ele>
        <time>2024-07-31T12:33:00.094Z</time>
      </trkpt>
      <trkpt lat="50.63466" lon="2.76272">
        <ele>16.055116</ele>
        <time>2024-07-31T12:33:18.444Z</time>
      </trkpt>
      <trkpt lat="50.63475" lon="2.76229">
        <ele>16.000439</ele>
        <time>2024-07-31T12:33:22.565Z</time>
      </trkpt>
      <trkpt lat="50.63503" lon="2.76131">
        <ele>15.935052</ele>
        <time>2024-07-31T12:33:32.439Z</time>
      </trkpt>
      <trkpt lat="50.63533" lon="2.75966">
        <ele>15.851846</ele>
        <time>2024-07-31T12:33:48.178Z</time>
      </trkpt>
      <trkpt lat="50.63539" lon="2.75943">
        <ele>15.858373</ele>
        <time>2024-07-31T12:33:50.625Z</time>
      </trkpt>
      <trkpt lat="50.63568" lon="2.75869">
        <ele>15.880777</ele>
        <time>2024-07-31T12:33:59.055Z</time>
      </trkpt>
      <trkpt lat="50.63575" lon="2.75838">
        <ele>15.889147</ele>
        <time>2024-07-31T12:34:02.227Z</time>
      </trkpt>
      <trkpt lat="50.63576" lon="2.75776">
        <ele>15.905307</ele>
        <time>2024-07-31T12:34:08.311Z</time>
      </trkpt>
      <trkpt lat="50.63573" lon="2.75716">
        <ele>15.914417</ele>
        <time>2024-07-31T12:34:14.019Z</time>
      </trkpt>
      <trkpt lat="50.63565" lon="2.75673">
        <ele>15.894584</ele>
        <time>2024-07-31T12:34:18.164Z</time>
      </trkpt>
      <trkpt lat="50.63527" lon="2.75551">
        <ele>15.834236</ele>
        <time>2024-07-31T12:34:30.776Z</time>
      </trkpt>
      <trkpt lat="50.6349" lon="2.75465">
        <ele>15.785618</ele>
        <time>2024-07-31T12:34:40.219Z</time>
      </trkpt>
      <trkpt lat="50.63484" lon="2.75445">
        <ele>15.771929</ele>
        <time>2024-07-31T12:34:42.169Z</time>
      </trkpt>
      <trkpt lat="50.63482" lon="2.75424">
        <ele>15.757817</ele>
        <time>2024-07-31T12:34:44.087Z</time>
      </trkpt>
      <trkpt lat="50.63483" lon="2.75401">
        <ele>15.743233</ele>
        <time>2024-07-31T12:34:46.187Z</time>
      </trkpt>
      <trkpt lat="50.63486" lon="2.75306">
        <ele>15.682199</ele>
        <time>2024-07-31T12:34:54.637Z</time>
      </trkpt>
      <trkpt lat="50.63492" lon="2.75244">
        <ele>15.641842</ele>
        <time>2024-07-31T12:35:00.372Z</time>
      </trkpt>
      <trkpt lat="50.63497" lon="2.75234">
        <ele>15.633629</ele>
        <time>2024-07-31T12:35:06.042Z</time>
      </trkpt>
      <trkpt lat="50.63548" lon="2.74991">
        <ele>15.68673</ele>
        <time>2024-07-31T12:36:58.685Z</time>
      </trkpt>
      <trkpt lat="50.63572" lon="2.7488">
        <ele>15.74023</ele>
        <time>2024-07-31T12:37:50.378Z</time>
      </trkpt>
      <trkpt lat="50.63609" lon="2.74679">
        <ele>15.86286</ele>
        <time>2024-07-31T12:39:22.428Z</time>
      </trkpt>
      <trkpt lat="50.63612" lon="2.74652">
        <ele>15.875106</ele>
        <time>2024-07-31T12:39:34.707Z</time>
      </trkpt>
      <trkpt lat="50.63611" lon="2.74626">
        <ele>15.87216</ele>
        <time>2024-07-31T12:39:46.238Z</time>
      </trkpt>
      <trkpt lat="50.6361" lon="2.74618">
        <ele>15.871179</ele>
        <time>2024-07-31T12:39:50.089Z</time>
      </trkpt>
      <trkpt lat="50.63597" lon="2.74525">
        <ele>15.860479</ele>
        <time>2024-07-31T12:40:31.957Z</time>
      </trkpt>
      <trkpt lat="50.63597" lon="2.74506">
        <ele>15.858337</ele>
        <time>2024-07-31T12:40:40.350Z</time>
      </trkpt>
      <trkpt lat="50.63602" lon="2.74499">
        <ele>15.857191</ele>
        <time>2024-07-31T12:40:44.837Z</time>
      </trkpt>
      <trkpt lat="50.63616" lon="2.74487">
        <ele>15.854298</ele>
        <time>2024-07-31T12:40:56.130Z</time>
      </trkpt>
      <trkpt lat="50.63666" lon="2.74451">
        <ele>15.844589</ele>
        <time>2024-07-31T12:41:34.140Z</time>
      </trkpt>
      <trkpt lat="50.63694" lon="2.74421">
        <ele>15.757487</ele>
        <time>2024-07-31T12:41:57.874Z</time>
      </trkpt>
      <trkpt lat="50.63698" lon="2.74416">
        <ele>15.744068</ele>
        <time>2024-07-31T12:42:01.103Z</time>
      </trkpt>
      <trkpt lat="50.63716" lon="2.744">
        <ele>15.682458</ele>
        <time>2024-07-31T12:42:15.894Z</time>
      </trkpt>
      <trkpt lat="50.63784" lon="2.74357">
        <ele>15.470994</ele>
        <time>2024-07-31T12:43:06.728Z</time>
      </trkpt>
      <trkpt lat="50.63833" lon="2.74325">
        <ele>15.320859</ele>
        <time>2024-07-31T12:43:43.830Z</time>
      </trkpt>
      <trkpt lat="50.63881" lon="2.74281">
        <ele>15.2558</ele>
        <time>2024-07-31T12:44:22.108Z</time>
      </trkpt>
      <trkpt lat="50.63884" lon="2.74275">
        <ele>15.250343</ele>
        <time>2024-07-31T12:44:25.307Z</time>
      </trkpt>
      <trkpt lat="50.6388" lon="2.74267">
        <ele>15.242629</ele>
        <time>2024-07-31T12:44:29.845Z</time>
      </trkpt>
      <trkpt lat="50.63887" lon="2.74257">
        <ele>15.231717</ele>
        <time>2024-07-31T12:44:31.133Z</time>
      </trkpt>
      <trkpt lat="50.63858" lon="2.74046">
        <ele>15.165054</ele>
        <time>2024-07-31T12:44:51.436Z</time>
      </trkpt>
      <trkpt lat="50.63851" lon="2.7393">
        <ele>15.280374</ele>
        <time>2024-07-31T12:45:03.099Z</time>
      </trkpt>
      <trkpt lat="50.63849" lon="2.73915">
        <ele>15.295006</ele>
        <time>2024-07-31T12:45:04.644Z</time>
      </trkpt>
      <trkpt lat="50.63843" lon="2.73827">
        <ele>15.382221</ele>
        <time>2024-07-31T12:45:13.496Z</time>
      </trkpt>
      <trkpt lat="50.63825" lon="2.73714">
        <ele>15.467499</ele>
        <time>2024-07-31T12:45:24.957Z</time>
      </trkpt>
      <trkpt lat="50.63812" lon="2.73667">
        <ele>15.504051</ele>
        <time>2024-07-31T12:45:29.917Z</time>
      </trkpt>
      <trkpt lat="50.63798" lon="2.73668">
        <ele>15.51999</ele>
        <time>2024-07-31T12:45:32.010Z</time>
      </trkpt>
      <trkpt lat="50.63753" lon="2.73671">
        <ele>15.57054</ele>
        <time>2024-07-31T12:45:38.675Z</time>
      </trkpt>
      <trkpt lat="50.63702" lon="2.73689">
        <ele>15.578393</ele>
        <time>2024-07-31T12:45:46.504Z</time>
      </trkpt>
      <trkpt lat="50.63552" lon="2.73756">
        <ele>15.505383</ele>
        <time>2024-07-31T12:46:09.126Z</time>
      </trkpt>
      <trkpt lat="50.6351" lon="2.7377">
        <ele>15.468108</ele>
        <time>2024-07-31T12:46:15.354Z</time>
      </trkpt>
      <trkpt lat="50.63487" lon="2.73761">
        <ele>15.447139</ele>
        <time>2024-07-31T12:46:18.923Z</time>
      </trkpt>
      <trkpt lat="50.63476" lon="2.73752">
        <ele>15.436696</ele>
        <time>2024-07-31T12:46:20.658Z</time>
      </trkpt>
      <trkpt lat="50.63473" lon="2.73736">
        <ele>15.427179</ele>
        <time>2024-07-31T12:46:22.281Z</time>
      </trkpt>
      <trkpt lat="50.63461" lon="2.73718">
        <ele>15.413383</ele>
        <time>2024-07-31T12:46:24.610Z</time>
      </trkpt>
      <trkpt lat="50.63455" lon="2.73715">
        <ele>15.407754</ele>
        <time>2024-07-31T12:46:25.531Z</time>
      </trkpt>
      <trkpt lat="50.6344" lon="2.73716">
        <ele>15.394634</ele>
        <time>2024-07-31T12:46:27.755Z</time>
      </trkpt>
      <trkpt lat="50.63434" lon="2.73722">
        <ele>15.388007</ele>
        <time>2024-07-31T12:46:28.872Z</time>
      </trkpt>
      <trkpt lat="50.63426" lon="2.73737">
        <ele>15.377284</ele>
        <time>2024-07-31T12:46:30.629Z</time>
      </trkpt>
      <trkpt lat="50.63422" lon="2.73735">
        <ele>15.373645</ele>
        <time>2024-07-31T12:46:31.232Z</time>
      </trkpt>
      <trkpt lat="50.63412" lon="2.73708">
        <ele>15.35673</ele>
        <time>2024-07-31T12:46:34.068Z</time>
      </trkpt>
      <trkpt lat="50.6342" lon="2.73673">
        <ele>15.348388</ele>
        <time>2024-07-31T12:46:37.474Z</time>
      </trkpt>
      <trkpt lat="50.63423" lon="2.73647">
        <ele>15.342735</ele>
        <time>2024-07-31T12:46:39.847Z</time>
      </trkpt>
      <trkpt lat="50.63421" lon="2.73561">
        <ele>15.323861</ele>
        <time>2024-07-31T12:46:47.796Z</time>
      </trkpt>
      <trkpt lat="50.63423" lon="2.73477">
        <ele>15.305552</ele>
        <time>2024-07-31T12:46:55.890Z</time>
      </trkpt>
      <trkpt lat="50.63428" lon="2.73411">
        <ele>15.286348</ele>
        <time>2024-07-31T12:47:02.181Z</time>
      </trkpt>
      <trkpt lat="50.63436" lon="2.73343">
        <ele>15.250758</ele>
        <time>2024-07-31T12:47:08.660Z</time>
      </trkpt>
      <trkpt lat="50.63454" lon="2.73241">
        <ele>15.196137</ele>
        <time>2024-07-31T12:47:18.302Z</time>
      </trkpt>
      <trkpt lat="50.6348" lon="2.73107">
        <ele>15.163227</ele>
        <time>2024-07-31T12:47:31.155Z</time>
      </trkpt>
      <trkpt lat="50.63494" lon="2.73056">
        <ele>15.179203</ele>
        <time>2024-07-31T12:47:36.392Z</time>
      </trkpt>
      <trkpt lat="50.63512" lon="2.7296">
        <ele>15.208212</ele>
        <time>2024-07-31T12:47:45.913Z</time>
      </trkpt>
      <trkpt lat="50.63523" lon="2.72852">
        <ele>15.262763</ele>
        <time>2024-07-31T12:47:56.450Z</time>
      </trkpt>
      <trkpt lat="50.63526" lon="2.72797">
        <ele>15.320852</ele>
        <time>2024-07-31T12:48:01.838Z</time>
      </trkpt>
      <trkpt lat="50.63524" lon="2.72728">
        <ele>15.394245</ele>
        <time>2024-07-31T12:48:08.681Z</time>
      </trkpt>
      <trkpt lat="50.63521" lon="2.72717">
        <ele>15.407096</ele>
        <time>2024-07-31T12:48:09.903Z</time>
      </trkpt>
      <trkpt lat="50.63514" lon="2.72711">
        <ele>15.420234</ele>
        <time>2024-07-31T12:48:11.155Z</time>
      </trkpt>
      <trkpt lat="50.63485" lon="2.72706">
        <ele>15.469506</ele>
        <time>2024-07-31T12:48:15.789Z</time>
      </trkpt>
      <trkpt lat="50.63472" lon="2.7269">
        <ele>15.496481</ele>
        <time>2024-07-31T12:48:18.314Z</time>
      </trkpt>
      <trkpt lat="50.6345" lon="2.72634">
        <ele>15.56674</ele>
        <time>2024-07-31T12:48:24.790Z</time>
      </trkpt>
      <trkpt lat="50.6344" lon="2.72562">
        <ele>15.645453</ele>
        <time>2024-07-31T12:48:31.906Z</time>
      </trkpt>
      <trkpt lat="50.63258" lon="2.72119">
        <ele>16.242609</ele>
        <time>2024-07-31T12:49:24.489Z</time>
      </trkpt>
      <trkpt lat="50.63167" lon="2.71894">
        <ele>16.377877</ele>
        <time>2024-07-31T12:49:49.835Z</time>
      </trkpt>
      <trkpt lat="50.63142" lon="2.71839">
        <ele>16.381148</ele>
        <time>2024-07-31T12:49:56.200Z</time>
      </trkpt>
      <trkpt lat="50.63084" lon="2.71755">
        <ele>16.387084</ele>
        <time>2024-07-31T12:50:07.754Z</time>
      </trkpt>
      <trkpt lat="50.63029" lon="2.71676">
        <ele>16.365037</ele>
        <time>2024-07-31T12:50:18.686Z</time>
      </trkpt>
      <trkpt lat="50.62993" lon="2.71636">
        <ele>16.3435</ele>
        <time>2024-07-31T12:50:25.057Z</time>
      </trkpt>
      <trkpt lat="50.62935" lon="2.71586">
        <ele>16.310368</ele>
        <time>2024-07-31T12:50:34.799Z</time>
      </trkpt>
      <trkpt lat="50.62862" lon="2.71488">
        <ele>16.300016</ele>
        <time>2024-07-31T12:50:54.010Z</time>
      </trkpt>
      <trkpt lat="50.62736" lon="2.71277">
        <ele>16.324718</ele>
        <time>2024-07-31T12:51:31.359Z</time>
      </trkpt>
      <trkpt lat="50.62719" lon="2.71252">
        <ele>16.331853</ele>
        <time>2024-07-31T12:51:36.007Z</time>
      </trkpt>
      <trkpt lat="50.62656" lon="2.71189">
        <ele>16.355259</ele>
        <time>2024-07-31T12:51:51.296Z</time>
      </trkpt>
      <trkpt lat="50.62638" lon="2.71145">
        <ele>16.380269</ele>
        <time>2024-07-31T12:51:58.176Z</time>
      </trkpt>
      <trkpt lat="50.62636" lon="2.71031">
        <ele>16.43782</ele>
        <time>2024-07-31T12:52:13.142Z</time>
      </trkpt>
      <trkpt lat="50.6259" lon="2.70784">
        <ele>16.479067</ele>
        <time>2024-07-31T12:52:46.281Z</time>
      </trkpt>
      <trkpt lat="50.62577" lon="2.70715">
        <ele>16.468222</ele>
        <time>2024-07-31T12:52:55.475Z</time>
      </trkpt>
      <trkpt lat="50.62532" lon="2.70538">
        <ele>16.452963</ele>
        <time>2024-07-31T12:53:19.761Z</time>
      </trkpt>
      <trkpt lat="50.62491" lon="2.70401">
        <ele>16.448005</ele>
        <time>2024-07-31T12:53:39.153Z</time>
      </trkpt>
      <trkpt lat="50.62408" lon="2.70148">
        <ele>16.658061</ele>
        <time>2024-07-31T12:54:16.645Z</time>
      </trkpt>
      <trkpt lat="50.62365" lon="2.69993">
        <ele>16.538552</ele>
        <time>2024-07-31T12:54:38.263Z</time>
      </trkpt>
      <trkpt lat="50.62334" lon="2.69838">
        <ele>16.364852</ele>
        <time>2024-07-31T12:54:58.020Z</time>
      </trkpt>
      <trkpt lat="50.62337" lon="2.69827">
        <ele>16.342044</ele>
        <time>2024-07-31T12:54:59.404Z</time>
      </trkpt>
      <trkpt lat="50.6233" lon="2.69822">
        <ele>16.318171</ele>
        <time>2024-07-31T12:55:00.860Z</time>
      </trkpt>
      <trkpt lat="50.62304" lon="2.69761">
        <ele>16.176363</ele>
        <time>2024-07-31T12:55:09.611Z</time>
      </trkpt>
      <trkpt lat="50.62298" lon="2.69744">
        <ele>16.139704</ele>
        <time>2024-07-31T12:55:11.920Z</time>
      </trkpt>
      <trkpt lat="50.62272" lon="2.69679">
        <ele>15.990571</ele>
        <time>2024-07-31T12:55:18.635Z</time>
      </trkpt>
      <trkpt lat="50.6226" lon="2.69654">
        <ele>15.929842</ele>
        <time>2024-07-31T12:55:22.533Z</time>
      </trkpt>
      <trkpt lat="50.62249" lon="2.69633">
        <ele>15.876701</ele>
        <time>2024-07-31T12:55:25.918Z</time>
      </trkpt>
      <trkpt lat="50.62177" lon="2.6956">
        <ele>15.964196</ele>
        <time>2024-07-31T12:55:43.010Z</time>
      </trkpt>
      <trkpt lat="50.62117" lon="2.69495">
        <ele>16.03913</ele>
        <time>2024-07-31T12:55:58.496Z</time>
      </trkpt>
      <trkpt lat="50.62059" lon="2.69425">
        <ele>16.170258</ele>
        <time>2024-07-31T12:56:14.237Z</time>
      </trkpt>
      <trkpt lat="50.62013" lon="2.69363">
        <ele>16.299172</ele>
        <time>2024-07-31T12:56:27.044Z</time>
      </trkpt>
      <trkpt lat="50.62001" lon="2.69352">
        <ele>16.328813</ele>
        <time>2024-07-31T12:56:29.948Z</time>
      </trkpt>
      <trkpt lat="50.61984" lon="2.69355">
        <ele>16.364069</ele>
        <time>2024-07-31T12:56:33.358Z</time>
      </trkpt>
      <trkpt lat="50.61968" lon="2.69364">
        <ele>16.400236</ele>
        <time>2024-07-31T12:56:36.923Z</time>
      </trkpt>
      <trkpt lat="50.61953" lon="2.69363">
        <ele>16.433636</ele>
        <time>2024-07-31T12:56:40.176Z</time>
      </trkpt>
      <trkpt lat="50.61938" lon="2.69346">
        <ele>16.44286</ele>
        <time>2024-07-31T12:56:43.876Z</time>
      </trkpt>
      <trkpt lat="50.61905" lon="2.69282">
        <ele>16.442653</ele>
        <time>2024-07-31T12:56:54.522Z</time>
      </trkpt>
      <trkpt lat="50.61884" lon="2.69233">
        <ele>16.442503</ele>
        <time>2024-07-31T12:57:02.134Z</time>
      </trkpt>
      <trkpt lat="50.61858" lon="2.69194">
        <ele>16.442359</ele>
        <time>2024-07-31T12:57:09.353Z</time>
      </trkpt>
      <trkpt lat="50.61848" lon="2.69192">
        <ele>16.442319</ele>
        <time>2024-07-31T12:57:11.369Z</time>
      </trkpt>
      <trkpt lat="50.61816" lon="2.69197">
        <ele>16.441335</ele>
        <time>2024-07-31T12:57:17.808Z</time>
      </trkpt>
      <trkpt lat="50.61678" lon="2.69205">
        <ele>16.385202</ele>
        <time>2024-07-31T12:57:45.305Z</time>
      </trkpt>
      <trkpt lat="50.6161" lon="2.69218">
        <ele>16.387099</ele>
        <time>2024-07-31T12:57:59.081Z</time>
      </trkpt>
      <trkpt lat="50.61567" lon="2.69214">
        <ele>16.415755</ele>
        <time>2024-07-31T12:58:08.029Z</time>
      </trkpt>
      <trkpt lat="50.6153" lon="2.69199">
        <ele>16.440605</ele>
        <time>2024-07-31T12:58:15.825Z</time>
      </trkpt>
      <trkpt lat="50.6147" lon="2.69162">
        <ele>16.482252</ele>
        <time>2024-07-31T12:58:29.011Z</time>
      </trkpt>
      <trkpt lat="50.61456" lon="2.69144">
        <ele>16.503757</ele>
        <time>2024-07-31T12:58:32.813Z</time>
      </trkpt>
      <trkpt lat="50.61443" lon="2.69125">
        <ele>16.528612</ele>
        <time>2024-07-31T12:58:36.503Z</time>
      </trkpt>
      <trkpt lat="50.61406" lon="2.69039">
        <ele>16.621129</ele>
        <time>2024-07-31T12:58:50.199Z</time>
      </trkpt>
      <trkpt lat="50.61399" lon="2.6903">
        <ele>16.63368</ele>
        <time>2024-07-31T12:58:52.058Z</time>
      </trkpt>
      <trkpt lat="50.61377" lon="2.68995">
        <ele>16.678247</ele>
        <time>2024-07-31T12:58:58.684Z</time>
      </trkpt>
      <trkpt lat="50.61438" lon="2.68912">
        <ele>16.760021</ele>
        <time>2024-07-31T12:59:11.214Z</time>
      </trkpt>
      <trkpt lat="50.61561" lon="2.68738">
        <ele>16.79432</ele>
        <time>2024-07-31T12:59:35.882Z</time>
      </trkpt>
      <trkpt lat="50.61589" lon="2.68704">
        <ele>16.722822</ele>
        <time>2024-07-31T12:59:40.860Z</time>
      </trkpt>
      <trkpt lat="50.61611" lon="2.68681">
        <ele>16.668975</ele>
        <time>2024-07-31T12:59:44.602Z</time>
      </trkpt>
      <trkpt lat="50.61627" lon="2.68673">
        <ele>16.635062</ele>
        <time>2024-07-31T12:59:46.980Z</time>
      </trkpt>
      <trkpt lat="50.61605" lon="2.68577">
        <ele>16.503671</ele>
        <time>2024-07-31T12:59:55.901Z</time>
      </trkpt>
      <trkpt lat="50.61593" lon="2.68518">
        <ele>16.455208</ele>
        <time>2024-07-31T13:00:01.273Z</time>
      </trkpt>
      <trkpt lat="50.61582" lon="2.68467">
        <ele>16.42918</ele>
        <time>2024-07-31T13:00:06.108Z</time>
      </trkpt>
      <trkpt lat="50.6158" lon="2.68424">
        <ele>16.407809</ele>
        <time>2024-07-31T13:00:10.205Z</time>
      </trkpt>
      <trkpt lat="50.61583" lon="2.68397">
        <ele>16.394533</ele>
        <time>2024-07-31T13:00:12.739Z</time>
      </trkpt>
      <trkpt lat="50.61606" lon="2.68297">
        <ele>16.343077</ele>
        <time>2024-07-31T13:00:22.851Z</time>
      </trkpt>
      <trkpt lat="50.61617" lon="2.6826">
        <ele>16.329127</ele>
        <time>2024-07-31T13:00:26.714Z</time>
      </trkpt>
      <trkpt lat="50.61617" lon="2.68242">
        <ele>16.324314</ele>
        <time>2024-07-31T13:00:28.387Z</time>
      </trkpt>
      <trkpt lat="50.61612" lon="2.68209">
        <ele>16.315402</ele>
        <time>2024-07-31T13:00:31.493Z</time>
      </trkpt>
      <trkpt lat="50.61598" lon="2.6815">
        <ele>16.298636</ele>
        <time>2024-07-31T13:00:37.401Z</time>
      </trkpt>
      <trkpt lat="50.61579" lon="2.68079">
        <ele>16.278419</ele>
        <time>2024-07-31T13:00:44.656Z</time>
      </trkpt>
      <trkpt lat="50.61574" lon="2.6804">
        <ele>16.267865</ele>
        <time>2024-07-31T13:00:48.415Z</time>
      </trkpt>
      <trkpt lat="50.61561" lon="2.67929">
        <ele>16.26813</ele>
        <time>2024-07-31T13:00:58.650Z</time>
      </trkpt>
      <trkpt lat="50.61554" lon="2.67862">
        <ele>16.273164</ele>
        <time>2024-07-31T13:01:04.942Z</time>
      </trkpt>
      <trkpt lat="50.61537" lon="2.677">
        <ele>16.310087</ele>
        <time>2024-07-31T13:01:20.851Z</time>
      </trkpt>
      <trkpt lat="50.61519" lon="2.67592">
        <ele>16.390482</ele>
        <time>2024-07-31T13:01:31.758Z</time>
      </trkpt>
      <trkpt lat="50.61513" lon="2.67537">
        <ele>16.430928</ele>
        <time>2024-07-31T13:01:37.178Z</time>
      </trkpt>
      <trkpt lat="50.61508" lon="2.67436">
        <ele>16.485161</ele>
        <time>2024-07-31T13:01:46.921Z</time>
      </trkpt>
      <trkpt lat="50.61507" lon="2.67399">
        <ele>16.481681</ele>
        <time>2024-07-31T13:01:50.526Z</time>
      </trkpt>
      <trkpt lat="50.61497" lon="2.67267">
        <ele>16.46928</ele>
        <time>2024-07-31T13:02:03.034Z</time>
      </trkpt>
      <trkpt lat="50.61485" lon="2.67025">
        <ele>16.45201</ele>
        <time>2024-07-31T13:02:25.360Z</time>
      </trkpt>
      <trkpt lat="50.6145" lon="2.66734">
        <ele>16.479203</ele>
        <time>2024-07-31T13:02:53.695Z</time>
      </trkpt>
      <trkpt lat="50.6151" lon="2.66715">
        <ele>16.499395</ele>
        <time>2024-07-31T13:03:02.817Z</time>
      </trkpt>
      <trkpt lat="50.61569" lon="2.6669">
        <ele>16.512542</ele>
        <time>2024-07-31T13:03:11.882Z</time>
      </trkpt>
      <trkpt lat="50.6159" lon="2.66664">
        <ele>16.517396</ele>
        <time>2024-07-31T13:03:15.894Z</time>
      </trkpt>
      <trkpt lat="50.61601" lon="2.66645">
        <ele>16.520274</ele>
        <time>2024-07-31T13:03:18.316Z</time>
      </trkpt>
      <trkpt lat="50.61641" lon="2.66549">
        <ele>16.53344</ele>
        <time>2024-07-31T13:03:29.025Z</time>
      </trkpt>
      <trkpt lat="50.61656" lon="2.66522">
        <ele>16.541319</ele>
        <time>2024-07-31T13:03:32.370Z</time>
      </trkpt>
      <trkpt lat="50.61747" lon="2.66396">
        <ele>16.63596</ele>
        <time>2024-07-31T13:03:50.468Z</time>
      </trkpt>
      <trkpt lat="50.61766" lon="2.66384">
        <ele>16.651738</ele>
        <time>2024-07-31T13:03:53.639Z</time>
      </trkpt>
      <trkpt lat="50.61863" lon="2.66345">
        <ele>16.69217</ele>
        <time>2024-07-31T13:04:09.471Z</time>
      </trkpt>
      <trkpt lat="50.61872" lon="2.66463">
        <ele>16.708725</ele>
        <time>2024-07-31T13:04:20.454Z</time>
      </trkpt>
      <trkpt lat="50.61874" lon="2.66473">
        <ele>16.710233</ele>
        <time>2024-07-31T13:04:21.458Z</time>
      </trkpt>
      <trkpt lat="50.61887" lon="2.6654">
        <ele>16.661704</ele>
        <time>2024-07-31T13:04:27.772Z</time>
      </trkpt>
      <trkpt lat="50.61917" lon="2.66625">
        <ele>16.418514</ele>
        <time>2024-07-31T13:04:36.339Z</time>
      </trkpt>
      <trkpt lat="50.61937" lon="2.6666">
        <ele>16.302774</ele>
        <time>2024-07-31T13:04:40.163Z</time>
      </trkpt>
      <trkpt lat="50.61954" lon="2.66685">
        <ele>16.210648</ele>
        <time>2024-07-31T13:04:43.134Z</time>
      </trkpt>
      <trkpt lat="50.61973" lon="2.66701">
        <ele>16.127091</ele>
        <time>2024-07-31T13:04:45.879Z</time>
      </trkpt>
      <trkpt lat="50.62001" lon="2.66721">
        <ele>16.008761</ele>
        <time>2024-07-31T13:04:49.933Z</time>
      </trkpt>
      <trkpt lat="50.62048" lon="2.66738">
        <ele>15.950792</ele>
        <time>2024-07-31T13:04:56.774Z</time>
      </trkpt>
      <trkpt lat="50.62083" lon="2.66736">
        <ele>15.908222</ele>
        <time>2024-07-31T13:05:01.842Z</time>
      </trkpt>
      <trkpt lat="50.62102" lon="2.6673">
        <ele>15.884228</ele>
        <time>2024-07-31T13:05:04.665Z</time>
      </trkpt>
      <trkpt lat="50.62133" lon="2.66715">
        <ele>15.845127</ele>
        <time>2024-07-31T13:05:09.579Z</time>
      </trkpt>
      <trkpt lat="50.62138" lon="2.66714">
        <ele>15.838653</ele>
        <time>2024-07-31T13:05:10.271Z</time>
      </trkpt>
      <trkpt lat="50.6217" lon="2.66692">
        <ele>15.796209</ele>
        <time>2024-07-31T13:05:15.438Z</time>
      </trkpt>
      <trkpt lat="50.62183" lon="2.6669">
        <ele>15.801158</ele>
        <time>2024-07-31T13:05:17.487Z</time>
      </trkpt>
      <trkpt lat="50.62191" lon="2.66678">
        <ele>15.811433</ele>
        <time>2024-07-31T13:05:19.227Z</time>
      </trkpt>
      <trkpt lat="50.62235" lon="2.66668">
        <ele>15.852143</ele>
        <time>2024-07-31T13:05:26.116Z</time>
      </trkpt>
      <trkpt lat="50.62272" lon="2.66657">
        <ele>15.887341</ele>
        <time>2024-07-31T13:05:32.261Z</time>
      </trkpt>
      <trkpt lat="50.62455" lon="2.66571">
        <ele>15.921896</ele>
        <time>2024-07-31T13:06:00.026Z</time>
      </trkpt>
      <trkpt lat="50.62547" lon="2.66529">
        <ele>15.920444</ele>
        <time>2024-07-31T13:06:14.159Z</time>
      </trkpt>
      <trkpt lat="50.62623" lon="2.665">
        <ele>15.972076</ele>
        <time>2024-07-31T13:06:26.009Z</time>
      </trkpt>
      <trkpt lat="50.62742" lon="2.66467">
        <ele>16.096393</ele>
        <time>2024-07-31T13:06:44.667Z</time>
      </trkpt>
      <trkpt lat="50.62935" lon="2.66429">
        <ele>16.327517</ele>
        <time>2024-07-31T13:07:14.595Z</time>
      </trkpt>
      <trkpt lat="50.6297" lon="2.66432">
        <ele>16.343355</ele>
        <time>2024-07-31T13:07:19.916Z</time>
      </trkpt>
      <trkpt lat="50.6298" lon="2.66438">
        <ele>16.348213</ele>
        <time>2024-07-31T13:07:21.570Z</time>
      </trkpt>
      <trkpt lat="50.62989" lon="2.66451">
        <ele>16.353741</ele>
        <time>2024-07-31T13:07:23.375Z</time>
      </trkpt>
      <trkpt lat="50.63001" lon="2.66455">
        <ele>16.359</ele>
        <time>2024-07-31T13:07:25.101Z</time>
      </trkpt>
      <trkpt lat="50.63012" lon="2.66451">
        <ele>16.36422</ele>
        <time>2024-07-31T13:07:26.840Z</time>
      </trkpt>
      <trkpt lat="50.63018" lon="2.66446">
        <ele>16.367123</ele>
        <time>2024-07-31T13:07:27.791Z</time>
      </trkpt>
      <trkpt lat="50.63025" lon="2.66429">
        <ele>16.372922</ele>
        <time>2024-07-31T13:07:29.665Z</time>
      </trkpt>
      <trkpt lat="50.63034" lon="2.6642">
        <ele>16.377712</ele>
        <time>2024-07-31T13:07:31.221Z</time>
      </trkpt>
      <trkpt lat="50.63061" lon="2.66403">
        <ele>16.346909</ele>
        <time>2024-07-31T13:07:35.351Z</time>
      </trkpt>
      <trkpt lat="50.63181" lon="2.66382">
        <ele>16.180351</ele>
        <time>2024-07-31T13:07:52.480Z</time>
      </trkpt>
      <trkpt lat="50.63203" lon="2.66372">
        <ele>16.148658</ele>
        <time>2024-07-31T13:07:55.710Z</time>
      </trkpt>
      <trkpt lat="50.63229" lon="2.66354">
        <ele>16.13379</ele>
        <time>2024-07-31T13:07:59.871Z</time>
      </trkpt>
      <trkpt lat="50.63245" lon="2.66339">
        <ele>16.136356</ele>
        <time>2024-07-31T13:08:02.427Z</time>
      </trkpt>
      <trkpt lat="50.63271" lon="2.66306">
        <ele>16.141287</ele>
        <time>2024-07-31T13:08:07.387Z</time>
      </trkpt>
      <trkpt lat="50.63303" lon="2.66242">
        <ele>16.148827</ele>
        <time>2024-07-31T13:08:15.131Z</time>
      </trkpt>
      <trkpt lat="50.63353" lon="2.661">
        <ele>16.205958</ele>
        <time>2024-07-31T13:08:30.849Z</time>
      </trkpt>
      <trkpt lat="50.6343" lon="2.65873">
        <ele>16.382571</ele>
        <time>2024-07-31T13:08:55.911Z</time>
      </trkpt>
      <trkpt lat="50.63577" lon="2.65472">
        <ele>16.573723</ele>
        <time>2024-07-31T13:09:40.200Z</time>
      </trkpt>
      <trkpt lat="50.63593" lon="2.65423">
        <ele>16.590967</ele>
        <time>2024-07-31T13:09:45.477Z</time>
      </trkpt>
      <trkpt lat="50.63609" lon="2.65348">
        <ele>16.558884</ele>
        <time>2024-07-31T13:09:52.876Z</time>
      </trkpt>
      <trkpt lat="50.63622" lon="2.65304">
        <ele>16.535581</ele>
        <time>2024-07-31T13:09:57.398Z</time>
      </trkpt>
      <trkpt lat="50.63631" lon="2.65267">
        <ele>16.516921</ele>
        <time>2024-07-31T13:10:00.988Z</time>
      </trkpt>
      <trkpt lat="50.63641" lon="2.65177">
        <ele>16.473241</ele>
        <time>2024-07-31T13:10:09.414Z</time>
      </trkpt>
      <trkpt lat="50.63648" lon="2.65135">
        <ele>16.454588</ele>
        <time>2024-07-31T13:10:13.320Z</time>
      </trkpt>
      <trkpt lat="50.63659" lon="2.65098">
        <ele>16.44228</ele>
        <time>2024-07-31T13:10:17.095Z</time>
      </trkpt>
      <trkpt lat="50.63677" lon="2.65052">
        <ele>16.426434</ele>
        <time>2024-07-31T13:10:21.978Z</time>
      </trkpt>
      <trkpt lat="50.63689" lon="2.65009">
        <ele>16.412462</ele>
        <time>2024-07-31T13:10:26.304Z</time>
      </trkpt>
      <trkpt lat="50.63699" lon="2.64933">
        <ele>16.389692</ele>
        <time>2024-07-31T13:10:33.512Z</time>
      </trkpt>
      <trkpt lat="50.63702" lon="2.64865">
        <ele>16.383652</ele>
        <time>2024-07-31T13:10:40.097Z</time>
      </trkpt>
      <trkpt lat="50.63736" lon="2.64702">
        <ele>16.497878</ele>
        <time>2024-07-31T13:10:56.755Z</time>
      </trkpt>
      <trkpt lat="50.63739" lon="2.6468">
        <ele>16.513003</ele>
        <time>2024-07-31T13:10:58.967Z</time>
      </trkpt>
      <trkpt lat="50.63739" lon="2.64656">
        <ele>16.528966</ele>
        <time>2024-07-31T13:11:01.317Z</time>
      </trkpt>
      <trkpt lat="50.63725" lon="2.64455">
        <ele>16.6763</ele>
        <time>2024-07-31T13:11:20.819Z</time>
      </trkpt>
      <trkpt lat="50.63712" lon="2.64279">
        <ele>16.793918</ele>
        <time>2024-07-31T13:11:38.015Z</time>
      </trkpt>
      <trkpt lat="50.637" lon="2.64122">
        <ele>16.858298</ele>
        <time>2024-07-31T13:11:53.203Z</time>
      </trkpt>
      <trkpt lat="50.63737" lon="2.64112">
        <ele>16.882431</ele>
        <time>2024-07-31T13:11:58.977Z</time>
      </trkpt>
      <trkpt lat="50.63792" lon="2.64098">
        <ele>16.856854</ele>
        <time>2024-07-31T13:12:07.090Z</time>
      </trkpt>
      <trkpt lat="50.63806" lon="2.64095">
        <ele>16.846003</ele>
        <time>2024-07-31T13:12:09.084Z</time>
      </trkpt>
      <trkpt lat="50.63811" lon="2.64093">
        <ele>16.841898</ele>
        <time>2024-07-31T13:12:09.840Z</time>
      </trkpt>
      <trkpt lat="50.639" lon="2.64068">
        <ele>16.770141</ele>
        <time>2024-07-31T13:12:22.643Z</time>
      </trkpt>
      <trkpt lat="50.63904" lon="2.64082">
        <ele>16.762362</ele>
        <time>2024-07-31T13:12:24.024Z</time>
      </trkpt>
      <trkpt lat="50.63912" lon="2.64091">
        <ele>16.754552</ele>
        <time>2024-07-31T13:12:25.491Z</time>
      </trkpt>
      <trkpt lat="50.63922" lon="2.64094">
        <ele>16.749339</ele>
        <time>2024-07-31T13:12:26.988Z</time>
      </trkpt>
      <trkpt lat="50.63931" lon="2.64097">
        <ele>16.755392</ele>
        <time>2024-07-31T13:12:28.321Z</time>
      </trkpt>
      <trkpt lat="50.63946" lon="2.64098">
        <ele>16.765697</ele>
        <time>2024-07-31T13:12:30.737Z</time>
      </trkpt>
      <trkpt lat="50.63959" lon="2.64082">
        <ele>16.776219</ele>
        <time>2024-07-31T13:12:33.240Z</time>
      </trkpt>
      <trkpt lat="50.63964" lon="2.64064">
        <ele>16.784639</ele>
        <time>2024-07-31T13:12:35.101Z</time>
      </trkpt>
      <trkpt lat="50.63973" lon="2.64054">
        <ele>16.791505</ele>
        <time>2024-07-31T13:12:36.713Z</time>
      </trkpt>
      <trkpt lat="50.63981" lon="2.64046">
        <ele>16.797712</ele>
        <time>2024-07-31T13:12:38.163Z</time>
      </trkpt>
      <trkpt lat="50.64001" lon="2.64041">
        <ele>16.811525</ele>
        <time>2024-07-31T13:12:41.251Z</time>
      </trkpt>
      <trkpt lat="50.64078" lon="2.6402">
        <ele>16.862837</ele>
        <time>2024-07-31T13:12:52.859Z</time>
      </trkpt>
      <trkpt lat="50.64191" lon="2.63991">
        <ele>17.054879</ele>
        <time>2024-07-31T13:13:11.171Z</time>
      </trkpt>
      <trkpt lat="50.64199" lon="2.63987">
        <ele>17.067789</ele>
        <time>2024-07-31T13:13:12.335Z</time>
      </trkpt>
      <trkpt lat="50.64213" lon="2.63981">
        <ele>17.093237</ele>
        <time>2024-07-31T13:13:14.586Z</time>
      </trkpt>
      <trkpt lat="50.64256" lon="2.63958">
        <ele>17.172639</ele>
        <time>2024-07-31T13:13:21.654Z</time>
      </trkpt>
      <trkpt lat="50.64228" lon="2.63899">
        <ele>17.156294</ele>
        <time>2024-07-31T13:13:28.921Z</time>
      </trkpt>
      <trkpt lat="50.64211" lon="2.63863">
        <ele>17.143147</ele>
        <time>2024-07-31T13:13:33.141Z</time>
      </trkpt>
      <trkpt lat="50.6418" lon="2.638">
        <ele>17.119719</ele>
        <time>2024-07-31T13:13:40.474Z</time>
      </trkpt>
      <trkpt lat="50.64103" lon="2.63716">
        <ele>17.03372</ele>
        <time>2024-07-31T13:13:53.589Z</time>
      </trkpt>
      <trkpt lat="50.64078" lon="2.63673">
        <ele>16.975731</ele>
        <time>2024-07-31T13:13:58.885Z</time>
      </trkpt>
      <trkpt lat="50.64059" lon="2.63634">
        <ele>16.926409</ele>
        <time>2024-07-31T13:14:03.280Z</time>
      </trkpt>
      <trkpt lat="50.64057" lon="2.63627">
        <ele>16.918172</ele>
        <time>2024-07-31T13:14:04.029Z</time>
      </trkpt>
      <trkpt lat="50.64055" lon="2.63624">
        <ele>16.914012</ele>
        <time>2024-07-31T13:14:04.400Z</time>
      </trkpt>
      <trkpt lat="50.6405" lon="2.63613">
        <ele>16.900827</ele>
        <time>2024-07-31T13:14:05.593Z</time>
      </trkpt>
      <trkpt lat="50.64048" lon="2.63606">
        <ele>16.89231</ele>
        <time>2024-07-31T13:14:06.350Z</time>
      </trkpt>
      <trkpt lat="50.64046" lon="2.63591">
        <ele>16.877655</ele>
        <time>2024-07-31T13:14:07.637Z</time>
      </trkpt>
      <trkpt lat="50.64046" lon="2.63523">
        <ele>16.808895</ele>
        <time>2024-07-31T13:14:13.797Z</time>
      </trkpt>
      <trkpt lat="50.64046" lon="2.63492">
        <ele>16.803742</ele>
        <time>2024-07-31T13:14:16.663Z</time>
      </trkpt>
      <trkpt lat="50.64034" lon="2.63364">
        <ele>16.785288</ele>
        <time>2024-07-31T13:14:28.745Z</time>
      </trkpt>
      <trkpt lat="50.64024" lon="2.63221">
        <ele>16.758568</ele>
        <time>2024-07-31T13:14:42.462Z</time>
      </trkpt>
      <trkpt lat="50.64025" lon="2.63171">
        <ele>16.736006</ele>
        <time>2024-07-31T13:14:47.176Z</time>
      </trkpt>
      <trkpt lat="50.6403" lon="2.63168">
        <ele>16.732168</ele>
        <time>2024-07-31T13:14:48.011Z</time>
      </trkpt>
      <trkpt lat="50.64033" lon="2.6316">
        <ele>16.728284</ele>
        <time>2024-07-31T13:14:48.806Z</time>
      </trkpt>
      <trkpt lat="50.64031" lon="2.63151">
        <ele>16.72411</ele>
        <time>2024-07-31T13:14:49.631Z</time>
      </trkpt>
      <trkpt lat="50.64026" lon="2.63148">
        <ele>16.719924</ele>
        <time>2024-07-31T13:14:50.475Z</time>
      </trkpt>
      <trkpt lat="50.64031" lon="2.62992">
        <ele>16.649988</ele>
        <time>2024-07-31T13:15:04.711Z</time>
      </trkpt>
      <trkpt lat="50.64043" lon="2.62946">
        <ele>16.607565</ele>
        <time>2024-07-31T13:15:09.194Z</time>
      </trkpt>
      <trkpt lat="50.64069" lon="2.62875">
        <ele>16.509942</ele>
        <time>2024-07-31T13:15:16.683Z</time>
      </trkpt>
      <trkpt lat="50.64112" lon="2.62756">
        <ele>16.348642</ele>
        <time>2024-07-31T13:15:28.897Z</time>
      </trkpt>
      <trkpt lat="50.64128" lon="2.62736">
        <ele>16.309565</ele>
        <time>2024-07-31T13:15:31.794Z</time>
      </trkpt>
      <trkpt lat="50.64139" lon="2.62713">
        <ele>16.287058</ele>
        <time>2024-07-31T13:15:34.310Z</time>
      </trkpt>
      <trkpt lat="50.6414" lon="2.62697">
        <ele>16.275445</ele>
        <time>2024-07-31T13:15:35.757Z</time>
      </trkpt>
      <trkpt lat="50.64107" lon="2.62576">
        <ele>16.18087</ele>
        <time>2024-07-31T13:15:47.754Z</time>
      </trkpt>
      <trkpt lat="50.64097" lon="2.62522">
        <ele>16.141201</ele>
        <time>2024-07-31T13:15:52.836Z</time>
      </trkpt>
      <trkpt lat="50.64092" lon="2.62414">
        <ele>16.116155</ele>
        <time>2024-07-31T13:16:02.916Z</time>
      </trkpt>
      <trkpt lat="50.64079" lon="2.62358">
        <ele>16.13334</ele>
        <time>2024-07-31T13:16:08.671Z</time>
      </trkpt>
      <trkpt lat="50.64069" lon="2.62318">
        <ele>16.145553</ele>
        <time>2024-07-31T13:16:12.812Z</time>
      </trkpt>
      <trkpt lat="50.64045" lon="2.62235">
        <ele>16.171273</ele>
        <time>2024-07-31T13:16:21.637Z</time>
      </trkpt>
      <trkpt lat="50.64027" lon="2.62174">
        <ele>16.188139</ele>
        <time>2024-07-31T13:16:28.142Z</time>
      </trkpt>
      <trkpt lat="50.64022" lon="2.62142">
        <ele>16.19489</ele>
        <time>2024-07-31T13:16:31.261Z</time>
      </trkpt>
      <trkpt lat="50.64019" lon="2.62107">
        <ele>16.202234</ele>
        <time>2024-07-31T13:16:34.573Z</time>
      </trkpt>
      <trkpt lat="50.64016" lon="2.6199">
        <ele>16.226387</ele>
        <time>2024-07-31T13:16:45.753Z</time>
      </trkpt>
      <trkpt lat="50.64012" lon="2.61863">
        <ele>16.247261</ele>
        <time>2024-07-31T13:16:57.587Z</time>
      </trkpt>
      <trkpt lat="50.64011" lon="2.61805">
        <ele>16.253938</ele>
        <time>2024-07-31T13:17:02.926Z</time>
      </trkpt>
      <trkpt lat="50.64002" lon="2.61725">
        <ele>16.263331</ele>
        <time>2024-07-31T13:17:10.507Z</time>
      </trkpt>
      <trkpt lat="50.63998" lon="2.61695">
        <ele>16.266923</ele>
        <time>2024-07-31T13:17:13.491Z</time>
      </trkpt>
      <trkpt lat="50.63995" lon="2.61675">
        <ele>16.269283</ele>
        <time>2024-07-31T13:17:15.400Z</time>
      </trkpt>
      <trkpt lat="50.63944" lon="2.61313">
        <ele>16.604995</ele>
        <time>2024-07-31T13:17:52.078Z</time>
      </trkpt>
      <trkpt lat="50.63942" lon="2.61197">
        <ele>16.595673</ele>
        <time>2024-07-31T13:18:03.257Z</time>
      </trkpt>
      <trkpt lat="50.63938" lon="2.61118">
        <ele>16.589306</ele>
        <time>2024-07-31T13:18:10.604Z</time>
      </trkpt>
      <trkpt lat="50.639" lon="2.60883">
        <ele>16.116694</ele>
        <time>2024-07-31T13:18:31.527Z</time>
      </trkpt>
      <trkpt lat="50.63892" lon="2.6081">
        <ele>15.948573</ele>
        <time>2024-07-31T13:18:37.796Z</time>
      </trkpt>
      <trkpt lat="50.63888" lon="2.60717">
        <ele>15.799333</ele>
        <time>2024-07-31T13:18:45.772Z</time>
      </trkpt>
      <trkpt lat="50.63888" lon="2.6064">
        <ele>15.676185</ele>
        <time>2024-07-31T13:18:52.472Z</time>
      </trkpt>
      <trkpt lat="50.63891" lon="2.60603">
        <ele>15.61726</ele>
        <time>2024-07-31T13:18:55.785Z</time>
      </trkpt>
      <trkpt lat="50.63901" lon="2.60553">
        <ele>15.533952</ele>
        <time>2024-07-31T13:19:00.620Z</time>
      </trkpt>
      <trkpt lat="50.63905" lon="2.60513">
        <ele>15.5129</ele>
        <time>2024-07-31T13:19:04.502Z</time>
      </trkpt>
      <trkpt lat="50.63899" lon="2.60427">
        <ele>15.621527</ele>
        <time>2024-07-31T13:19:12.971Z</time>
      </trkpt>
      <trkpt lat="50.63891" lon="2.60347">
        <ele>15.722758</ele>
        <time>2024-07-31T13:19:21.237Z</time>
      </trkpt>
      <trkpt lat="50.63885" lon="2.60151">
        <ele>15.930524</ele>
        <time>2024-07-31T13:19:40.969Z</time>
      </trkpt>
      <trkpt lat="50.63878" lon="2.60033">
        <ele>16.031923</ele>
        <time>2024-07-31T13:19:52.481Z</time>
      </trkpt>
      <trkpt lat="50.63879" lon="2.59983">
        <ele>16.074968</ele>
        <time>2024-07-31T13:19:57.248Z</time>
      </trkpt>
      <trkpt lat="50.63884" lon="2.5995">
        <ele>16.091168</ele>
        <time>2024-07-31T13:20:00.514Z</time>
      </trkpt>
      <trkpt lat="50.63919" lon="2.59853">
        <ele>16.082349</ele>
        <time>2024-07-31T13:20:10.918Z</time>
      </trkpt>
      <trkpt lat="50.63922" lon="2.59844">
        <ele>16.081585</ele>
        <time>2024-07-31T13:20:11.820Z</time>
      </trkpt>
      <trkpt lat="50.63928" lon="2.59826">
        <ele>16.079903</ele>
        <time>2024-07-31T13:20:13.807Z</time>
      </trkpt>
      <trkpt lat="50.64032" lon="2.59437">
        <ele>16.007634</ele>
        <time>2024-07-31T13:20:53.119Z</time>
      </trkpt>
      <trkpt lat="50.64039" lon="2.59403">
        <ele>16.000948</ele>
        <time>2024-07-31T13:20:56.441Z</time>
      </trkpt>
      <trkpt lat="50.6405" lon="2.59312">
        <ele>15.983519</ele>
        <time>2024-07-31T13:21:05.205Z</time>
      </trkpt>
      <trkpt lat="50.64056" lon="2.59228">
        <ele>15.967461</ele>
        <time>2024-07-31T13:21:13.161Z</time>
      </trkpt>
      <trkpt lat="50.641" lon="2.5909">
        <ele>15.824166</ele>
        <time>2024-07-31T13:21:27.214Z</time>
      </trkpt>
      <trkpt lat="50.64112" lon="2.59043">
        <ele>15.752919</ele>
        <time>2024-07-31T13:21:31.863Z</time>
      </trkpt>
      <trkpt lat="50.64114" lon="2.59012">
        <ele>15.709869</ele>
        <time>2024-07-31T13:21:34.677Z</time>
      </trkpt>
      <trkpt lat="50.64106" lon="2.58917">
        <ele>15.577252</ele>
        <time>2024-07-31T13:21:42.879Z</time>
      </trkpt>
      <trkpt lat="50.64092" lon="2.5879">
        <ele>15.358242</ele>
        <time>2024-07-31T13:21:53.783Z</time>
      </trkpt>
      <trkpt lat="50.6408" lon="2.58718">
        <ele>15.229226</ele>
        <time>2024-07-31T13:22:00.223Z</time>
      </trkpt>
      <trkpt lat="50.64067" lon="2.58666">
        <ele>15.132412</ele>
        <time>2024-07-31T13:22:05.247Z</time>
      </trkpt>
      <trkpt lat="50.64053" lon="2.58617">
        <ele>15.105721</ele>
        <time>2024-07-31T13:22:10.205Z</time>
      </trkpt>
      <trkpt lat="50.64041" lon="2.58479">
        <ele>15.358106</ele>
        <time>2024-07-31T13:22:24.121Z</time>
      </trkpt>
      <trkpt lat="50.6403" lon="2.58422">
        <ele>15.464901</ele>
        <time>2024-07-31T13:22:30.408Z</time>
      </trkpt>
      <trkpt lat="50.64" lon="2.58301">
        <ele>15.684624</ele>
        <time>2024-07-31T13:22:44.241Z</time>
      </trkpt>
      <trkpt lat="50.63954" lon="2.58114">
        <ele>15.997151</ele>
        <time>2024-07-31T13:23:04.472Z</time>
      </trkpt>
      <trkpt lat="50.63911" lon="2.57995">
        <ele>16.051185</ele>
        <time>2024-07-31T13:23:17.120Z</time>
      </trkpt>
      <trkpt lat="50.63899" lon="2.57957">
        <ele>16.059675</ele>
        <time>2024-07-31T13:23:21.164Z</time>
      </trkpt>
      <trkpt lat="50.63891" lon="2.57904">
        <ele>16.070519</ele>
        <time>2024-07-31T13:23:26.330Z</time>
      </trkpt>
      <trkpt lat="50.63885" lon="2.57868">
        <ele>16.07789</ele>
        <time>2024-07-31T13:23:29.836Z</time>
      </trkpt>
      <trkpt lat="50.63882" lon="2.57834">
        <ele>16.084856</ele>
        <time>2024-07-31T13:23:33.049Z</time>
      </trkpt>
      <trkpt lat="50.63881" lon="2.57715">
        <ele>16.11902</ele>
        <time>2024-07-31T13:23:44.348Z</time>
      </trkpt>
      <trkpt lat="50.63884" lon="2.5747">
        <ele>16.192853</ele>
        <time>2024-07-31T13:24:07.636Z</time>
      </trkpt>
      <trkpt lat="50.63941" lon="2.56839">
        <ele>16.437269</ele>
        <time>2024-07-31T13:25:08.511Z</time>
      </trkpt>
      <trkpt lat="50.6396" lon="2.56715">
        <ele>16.508766</ele>
        <time>2024-07-31T13:25:21.011Z</time>
      </trkpt>
      <trkpt lat="50.63965" lon="2.56648">
        <ele>16.519892</ele>
        <time>2024-07-31T13:25:27.534Z</time>
      </trkpt>
      <trkpt lat="50.63993" lon="2.56192">
        <ele>16.556455</ele>
        <time>2024-07-31T13:26:10.480Z</time>
      </trkpt>
      <trkpt lat="50.63994" lon="2.56123">
        <ele>16.560859</ele>
        <time>2024-07-31T13:26:17.124Z</time>
      </trkpt>
      <trkpt lat="50.63994" lon="2.56103">
        <ele>16.563935</ele>
        <time>2024-07-31T13:26:19.110Z</time>
      </trkpt>
      <trkpt lat="50.63992" lon="2.56059">
        <ele>16.570398</ele>
        <time>2024-07-31T13:26:23.261Z</time>
      </trkpt>
      <trkpt lat="50.63972" lon="2.55877">
        <ele>16.598033</ele>
        <time>2024-07-31T13:26:40.842Z</time>
      </trkpt>
      <trkpt lat="50.63968" lon="2.55814">
        <ele>16.577934</ele>
        <time>2024-07-31T13:26:46.824Z</time>
      </trkpt>
      <trkpt lat="50.63969" lon="2.55743">
        <ele>16.548809</ele>
        <time>2024-07-31T13:26:53.422Z</time>
      </trkpt>
      <trkpt lat="50.63991" lon="2.55473">
        <ele>16.450662</ele>
        <time>2024-07-31T13:27:18.220Z</time>
      </trkpt>
      <trkpt lat="50.64053" lon="2.55203">
        <ele>16.463382</ele>
        <time>2024-07-31T13:27:45.109Z</time>
      </trkpt>
      <trkpt lat="50.64063" lon="2.55164">
        <ele>16.486082</ele>
        <time>2024-07-31T13:27:49.132Z</time>
      </trkpt>
      <trkpt lat="50.64078" lon="2.55137">
        <ele>16.505717</ele>
        <time>2024-07-31T13:27:52.650Z</time>
      </trkpt>
      <trkpt lat="50.64126" lon="2.55068">
        <ele>16.564345</ele>
        <time>2024-07-31T13:28:02.694Z</time>
      </trkpt>
      <trkpt lat="50.64226" lon="2.5492">
        <ele>16.737955</ele>
        <time>2024-07-31T13:28:23.891Z</time>
      </trkpt>
      <trkpt lat="50.6425" lon="2.54878">
        <ele>16.780232</ele>
        <time>2024-07-31T13:28:29.314Z</time>
      </trkpt>
      <trkpt lat="50.6428" lon="2.54814">
        <ele>16.723673</ele>
        <time>2024-07-31T13:28:36.915Z</time>
      </trkpt>
      <trkpt lat="50.64357" lon="2.54638">
        <ele>16.554898</ele>
        <time>2024-07-31T13:28:56.253Z</time>
      </trkpt>
      <trkpt lat="50.64389" lon="2.54598">
        <ele>16.413739</ele>
        <time>2024-07-31T13:29:01.762Z</time>
      </trkpt>
      <trkpt lat="50.64418" lon="2.54553">
        <ele>16.273706</ele>
        <time>2024-07-31T13:29:07.158Z</time>
      </trkpt>
      <trkpt lat="50.64471" lon="2.54461">
        <ele>16.000327</ele>
        <time>2024-07-31T13:29:17.677Z</time>
      </trkpt>
      <trkpt lat="50.64551" lon="2.54345">
        <ele>15.995991</ele>
        <time>2024-07-31T13:29:33.473Z</time>
      </trkpt>
      <trkpt lat="50.64594" lon="2.54277">
        <ele>16.019308</ele>
        <time>2024-07-31T13:29:42.991Z</time>
      </trkpt>
      <trkpt lat="50.64621" lon="2.54231">
        <ele>16.079117</ele>
        <time>2024-07-31T13:29:49.456Z</time>
      </trkpt>
      <trkpt lat="50.64628" lon="2.54212">
        <ele>16.121332</ele>
        <time>2024-07-31T13:29:51.744Z</time>
      </trkpt>
      <trkpt lat="50.64632" lon="2.54187">
        <ele>16.169935</ele>
        <time>2024-07-31T13:29:54.528Z</time>
      </trkpt>
      <trkpt lat="50.64645" lon="2.54102">
        <ele>16.331728</ele>
        <time>2024-07-31T13:30:03.560Z</time>
      </trkpt>
      <trkpt lat="50.64707" lon="2.53898">
        <ele>16.688714</ele>
        <time>2024-07-31T13:30:26.092Z</time>
      </trkpt>
      <trkpt lat="50.64709" lon="2.53888">
        <ele>16.701582</ele>
        <time>2024-07-31T13:30:27.142Z</time>
      </trkpt>
      <trkpt lat="50.64722" lon="2.53817">
        <ele>16.793219</ele>
        <time>2024-07-31T13:30:34.463Z</time>
      </trkpt>
      <trkpt lat="50.64755" lon="2.53678">
        <ele>16.938323</ele>
        <time>2024-07-31T13:30:49.015Z</time>
      </trkpt>
      <trkpt lat="50.64758" lon="2.5364">
        <ele>16.957886</ele>
        <time>2024-07-31T13:30:52.642Z</time>
      </trkpt>
      <trkpt lat="50.6495" lon="2.53506">
        <ele>17.175367</ele>
        <time>2024-07-31T13:31:24.019Z</time>
      </trkpt>
      <trkpt lat="50.64995" lon="2.53474">
        <ele>17.242038</ele>
        <time>2024-07-31T13:31:31.916Z</time>
      </trkpt>
      <trkpt lat="50.65014" lon="2.53462">
        <ele>17.26879</ele>
        <time>2024-07-31T13:31:35.000Z</time>
      </trkpt>
      <trkpt lat="50.65327" lon="2.53242">
        <ele>18.194956</ele>
        <time>2024-07-31T13:32:30.222Z</time>
      </trkpt>
      <trkpt lat="50.65331" lon="2.53239">
        <ele>18.205918</ele>
        <time>2024-07-31T13:32:30.965Z</time>
      </trkpt>
      <trkpt lat="50.66251" lon="2.52595">
        <ele>18.70629</ele>
        <time>2024-07-31T13:35:01.124Z</time>
      </trkpt>
      <trkpt lat="50.66926" lon="2.52122">
        <ele>19.717242</ele>
        <time>2024-07-31T13:36:56.494Z</time>
      </trkpt>
      <trkpt lat="50.66929" lon="2.5212">
        <ele>19.713981</ele>
        <time>2024-07-31T13:36:56.872Z</time>
      </trkpt>
      <trkpt lat="50.66942" lon="2.52111">
        <ele>19.697168</ele>
        <time>2024-07-31T13:36:58.887Z</time>
      </trkpt>
      <trkpt lat="50.67381" lon="2.51804">
        <ele>17.467035</ele>
        <time>2024-07-31T13:38:02.151Z</time>
      </trkpt>
      <trkpt lat="50.67387" lon="2.51799">
        <ele>17.438434</ele>
        <time>2024-07-31T13:38:03.031Z</time>
      </trkpt>
      <trkpt lat="50.67439" lon="2.51873">
        <ele>17.143289</ele>
        <time>2024-07-31T13:38:15.971Z</time>
      </trkpt>
      <trkpt lat="50.67442" lon="2.51878">
        <ele>17.126666</ele>
        <time>2024-07-31T13:38:16.712Z</time>
      </trkpt>
      <trkpt lat="50.67447" lon="2.51899">
        <ele>17.065874</ele>
        <time>2024-07-31T13:38:19.438Z</time>
      </trkpt>
      <trkpt lat="50.67443" lon="2.51919">
        <ele>17.010125</ele>
        <time>2024-07-31T13:38:21.928Z</time>
      </trkpt>
      <trkpt lat="50.67435" lon="2.51934">
        <ele>16.957178</ele>
        <time>2024-07-31T13:38:24.326Z</time>
      </trkpt>
      <trkpt lat="50.67384" lon="2.52011">
        <ele>16.888768</ele>
        <time>2024-07-31T13:38:38.197Z</time>
      </trkpt>
      <trkpt lat="50.67381" lon="2.52021">
        <ele>16.884772</ele>
        <time>2024-07-31T13:38:39.731Z</time>
      </trkpt>
      <trkpt lat="50.67382" lon="2.52043">
        <ele>16.877476</ele>
        <time>2024-07-31T13:38:42.441Z</time>
      </trkpt>
      <trkpt lat="50.67407" lon="2.52104">
        <ele>16.852681</ele>
        <time>2024-07-31T13:38:51.663Z</time>
      </trkpt>
      <trkpt lat="50.67442" lon="2.52168">
        <ele>16.829194</ele>
        <time>2024-07-31T13:39:02.475Z</time>
      </trkpt>
      <trkpt lat="50.67458" lon="2.52187">
        <ele>16.863866</ele>
        <time>2024-07-31T13:39:06.641Z</time>
      </trkpt>
      <trkpt lat="50.67465" lon="2.52189">
        <ele>16.87604</ele>
        <time>2024-07-31T13:39:08.176Z</time>
      </trkpt>
      <trkpt lat="50.67478" lon="2.52187">
        <ele>16.897858</ele>
        <time>2024-07-31T13:39:10.925Z</time>
      </trkpt>
      <trkpt lat="50.67491" lon="2.52188">
        <ele>16.919918</ele>
        <time>2024-07-31T13:39:13.640Z</time>
      </trkpt>
      <trkpt lat="50.675" lon="2.52196">
        <ele>16.937633</ele>
        <time>2024-07-31T13:39:15.852Z</time>
      </trkpt>
      <trkpt lat="50.6754" lon="2.52263">
        <ele>17.036163</ele>
        <time>2024-07-31T13:39:28.189Z</time>
      </trkpt>
      <trkpt lat="50.67549" lon="2.52279">
        <ele>17.06012</ele>
        <time>2024-07-31T13:39:31.176Z</time>
      </trkpt>
      <trkpt lat="50.67665" lon="2.52459">
        <ele>17.287245</ele>
        <time>2024-07-31T13:40:04.972Z</time>
      </trkpt>
      <trkpt lat="50.67702" lon="2.52512">
        <ele>17.352336</ele>
        <time>2024-07-31T13:40:15.433Z</time>
      </trkpt>
      <trkpt lat="50.67707" lon="2.52518">
        <ele>17.360443</ele>
        <time>2024-07-31T13:40:16.720Z</time>
      </trkpt>
      <trkpt lat="50.67713" lon="2.52523">
        <ele>17.36308</ele>
        <time>2024-07-31T13:40:18.088Z</time>
      </trkpt>
      <trkpt lat="50.67741" lon="2.52521">
        <ele>17.359034</ele>
        <time>2024-07-31T13:40:23.867Z</time>
      </trkpt>
      <trkpt lat="50.67762" lon="2.52527">
        <ele>17.35601</ele>
        <time>2024-07-31T13:40:28.172Z</time>
      </trkpt>
      <trkpt lat="50.67954" lon="2.52629">
        <ele>17.340265</ele>
        <time>2024-07-31T13:41:08.732Z</time>
      </trkpt>
      <trkpt lat="50.67985" lon="2.52646">
        <ele>17.341339</ele>
        <time>2024-07-31T13:41:15.429Z</time>
      </trkpt>
      <trkpt lat="50.67999" lon="2.52659">
        <ele>17.341864</ele>
        <time>2024-07-31T13:41:18.645Z</time>
      </trkpt>
      <trkpt lat="50.68043" lon="2.52592">
        <ele>17.355626</ele>
        <time>2024-07-31T13:41:31.043Z</time>
      </trkpt>
      <trkpt lat="50.68065" lon="2.52543">
        <ele>17.42637</ele>
        <time>2024-07-31T13:41:38.901Z</time>
      </trkpt>
      <trkpt lat="50.68068" lon="2.52538">
        <ele>17.434093</ele>
        <time>2024-07-31T13:41:39.752Z</time>
      </trkpt>
      <trkpt lat="50.68112" lon="2.52476">
        <ele>17.543547</ele>
        <time>2024-07-31T13:41:52.134Z</time>
      </trkpt>
      <trkpt lat="50.68192" lon="2.52333">
        <ele>17.780285</ele>
        <time>2024-07-31T13:42:17.790Z</time>
      </trkpt>
      <trkpt lat="50.68231" lon="2.52278">
        <ele>17.890424</ele>
        <time>2024-07-31T13:42:28.874Z</time>
      </trkpt>
      <trkpt lat="50.68343" lon="2.5213">
        <ele>18.048624</ele>
        <time>2024-07-31T13:42:59.759Z</time>
      </trkpt>
      <trkpt lat="50.68427" lon="2.52034">
        <ele>18.036085</ele>
        <time>2024-07-31T13:43:20.014Z</time>
      </trkpt>
      <trkpt lat="50.68442" lon="2.52012">
        <ele>18.042917</ele>
        <time>2024-07-31T13:43:23.996Z</time>
      </trkpt>
      <trkpt lat="50.68463" lon="2.51977">
        <ele>18.063412</ele>
        <time>2024-07-31T13:43:29.920Z</time>
      </trkpt>
      <trkpt lat="50.68485" lon="2.5193">
        <ele>18.088133</ele>
        <time>2024-07-31T13:43:37.292Z</time>
      </trkpt>
      <trkpt lat="50.68498" lon="2.51903">
        <ele>18.102309</ele>
        <time>2024-07-31T13:43:41.668Z</time>
      </trkpt>
      <trkpt lat="50.68512" lon="2.5186">
        <ele>18.123204</ele>
        <time>2024-07-31T13:43:48.198Z</time>
      </trkpt>
      <trkpt lat="50.68516" lon="2.51835">
        <ele>18.134322</ele>
        <time>2024-07-31T13:43:51.708Z</time>
      </trkpt>
      <trkpt lat="50.68522" lon="2.51691">
        <ele>18.298005</ele>
        <time>2024-07-31T13:44:11.024Z</time>
      </trkpt>
      <trkpt lat="50.68526" lon="2.51652">
        <ele>18.357641</ele>
        <time>2024-07-31T13:44:16.355Z</time>
      </trkpt>
      <trkpt lat="50.68534" lon="2.51619">
        <ele>18.411695</ele>
        <time>2024-07-31T13:44:21.317Z</time>
      </trkpt>
      <trkpt lat="50.68519" lon="2.51599">
        <ele>18.458573</ele>
        <time>2024-07-31T13:44:25.796Z</time>
      </trkpt>
      <trkpt lat="50.68534" lon="2.51619">
        <ele>18.505452</ele>
        <time>2024-07-31T13:44:30.189Z</time>
      </trkpt>
      <trkpt lat="50.68711" lon="2.51851">
        <ele>18.374246</ele>
        <time>2024-07-31T13:45:15.807Z</time>
      </trkpt>
      <trkpt lat="50.68772" lon="2.5193">
        <ele>18.239343</ele>
        <time>2024-07-31T13:45:30.937Z</time>
      </trkpt>
      <trkpt lat="50.68835" lon="2.52013">
        <ele>18.09691</ele>
        <time>2024-07-31T13:45:47.107Z</time>
      </trkpt>
      <trkpt lat="50.68878" lon="2.52097">
        <ele>17.970088</ele>
        <time>2024-07-31T13:46:00.491Z</time>
      </trkpt>
      <trkpt lat="50.68889" lon="2.52108">
        <ele>17.945204</ele>
        <time>2024-07-31T13:46:03.125Z</time>
      </trkpt>
      <trkpt lat="50.68851" lon="2.52221">
        <ele>17.794296</ele>
        <time>2024-07-31T13:46:14.572Z</time>
      </trkpt>
      <trkpt lat="50.68784" lon="2.52399">
        <ele>17.506898</ele>
        <time>2024-07-31T13:46:32.986Z</time>
      </trkpt>
      <trkpt lat="50.68743" lon="2.52539">
        <ele>17.274387</ele>
        <time>2024-07-31T13:46:46.688Z</time>
      </trkpt>
      <trkpt lat="50.68642" lon="2.52839">
        <ele>16.749073</ele>
        <time>2024-07-31T13:47:16.614Z</time>
      </trkpt>
      <trkpt lat="50.68631" lon="2.52853">
        <ele>16.72122</ele>
        <time>2024-07-31T13:47:18.493Z</time>
      </trkpt>
      <trkpt lat="50.68613" lon="2.52863">
        <ele>16.683815</ele>
        <time>2024-07-31T13:47:21.160Z</time>
      </trkpt>
      <trkpt lat="50.68563" lon="2.52869">
        <ele>16.585478</ele>
        <time>2024-07-31T13:47:28.149Z</time>
      </trkpt>
      <trkpt lat="50.68522" lon="2.52919">
        <ele>16.533597</ele>
        <time>2024-07-31T13:47:35.907Z</time>
      </trkpt>
      <trkpt lat="50.68507" lon="2.52944">
        <ele>16.543148</ele>
        <time>2024-07-31T13:47:39.104Z</time>
      </trkpt>
      <trkpt lat="50.68445" lon="2.53085">
        <ele>16.590309</ele>
        <time>2024-07-31T13:47:55.631Z</time>
      </trkpt>
      <trkpt lat="50.68411" lon="2.53174">
        <ele>16.591087</ele>
        <time>2024-07-31T13:48:05.684Z</time>
      </trkpt>
      <trkpt lat="50.68381" lon="2.53259">
        <ele>16.572357</ele>
        <time>2024-07-31T13:48:15.073Z</time>
      </trkpt>
      <trkpt lat="50.68745" lon="2.53386">
        <ele>16.081004</ele>
        <time>2024-07-31T13:49:27.976Z</time>
      </trkpt>
      <trkpt lat="50.68847" lon="2.53422">
        <ele>16.078638</ele>
        <time>2024-07-31T13:49:48.686Z</time>
      </trkpt>
      <trkpt lat="50.68864" lon="2.53437">
        <ele>16.119038</ele>
        <time>2024-07-31T13:49:52.659Z</time>
      </trkpt>
      <trkpt lat="50.68886" lon="2.53469">
        <ele>16.181884</ele>
        <time>2024-07-31T13:49:58.981Z</time>
      </trkpt>
      <trkpt lat="50.69033" lon="2.53735">
        <ele>16.761185</ele>
        <time>2024-07-31T13:50:47.636Z</time>
      </trkpt>
      <trkpt lat="50.69171" lon="2.53982">
        <ele>16.978196</ele>
        <time>2024-07-31T13:51:30.419Z</time>
      </trkpt>
      <trkpt lat="50.69222" lon="2.54066">
        <ele>16.930807</ele>
        <time>2024-07-31T13:51:45.083Z</time>
      </trkpt>
      <trkpt lat="50.69362" lon="2.54258">
        <ele>16.69301</ele>
        <time>2024-07-31T13:52:21.576Z</time>
      </trkpt>
      <trkpt lat="50.69534" lon="2.54485">
        <ele>16.524834</ele>
        <time>2024-07-31T13:53:05.324Z</time>
      </trkpt>
      <trkpt lat="50.69695" lon="2.54706">
        <ele>17.034693</ele>
        <time>2024-07-31T13:53:51.228Z</time>
      </trkpt>
      <trkpt lat="50.6972" lon="2.54747">
        <ele>17.162951</ele>
        <time>2024-07-31T13:53:59.219Z</time>
      </trkpt>
      <trkpt lat="50.69725" lon="2.5474">
        <ele>17.187335</ele>
        <time>2024-07-31T13:54:00.358Z</time>
      </trkpt>
      <trkpt lat="50.69729" lon="2.54736">
        <ele>17.202751</ele>
        <time>2024-07-31T13:54:01.206Z</time>
      </trkpt>
      <trkpt lat="50.69752" lon="2.54708">
        <ele>17.286519</ele>
        <time>2024-07-31T13:54:05.960Z</time>
      </trkpt>
      <trkpt lat="50.69768" lon="2.54696">
        <ele>17.337356</ele>
        <time>2024-07-31T13:54:08.853Z</time>
      </trkpt>
      <trkpt lat="50.69854" lon="2.54653">
        <ele>17.60191</ele>
        <time>2024-07-31T13:54:23.657Z</time>
      </trkpt>
      <trkpt lat="50.69964" lon="2.54588">
        <ele>17.660922</ele>
        <time>2024-07-31T13:54:41.287Z</time>
      </trkpt>
      <trkpt lat="50.7007" lon="2.54522">
        <ele>17.557318</ele>
        <time>2024-07-31T13:54:57.372Z</time>
      </trkpt>
      <trkpt lat="50.70149" lon="2.54473">
        <ele>17.317462</ele>
        <time>2024-07-31T13:55:08.858Z</time>
      </trkpt>
      <trkpt lat="50.70396" lon="2.5431">
        <ele>16.73295</ele>
        <time>2024-07-31T13:55:46.481Z</time>
      </trkpt>
      <trkpt lat="50.70405" lon="2.54301">
        <ele>16.747412</ele>
        <time>2024-07-31T13:55:48.028Z</time>
      </trkpt>
      <trkpt lat="50.70412" lon="2.54289">
        <ele>16.762157</ele>
        <time>2024-07-31T13:55:49.615Z</time>
      </trkpt>
      <trkpt lat="50.70452" lon="2.54182">
        <ele>16.873425</ele>
        <time>2024-07-31T13:56:01.782Z</time>
      </trkpt>
      <trkpt lat="50.70467" lon="2.5415">
        <ele>16.909958</ele>
        <time>2024-07-31T13:56:05.854Z</time>
      </trkpt>
      <trkpt lat="50.70462" lon="2.54143">
        <ele>16.918716</ele>
        <time>2024-07-31T13:56:06.843Z</time>
      </trkpt>
      <trkpt lat="50.70467" lon="2.5415">
        <ele>16.927475</ele>
        <time>2024-07-31T13:56:07.814Z</time>
      </trkpt>
      <trkpt lat="50.70564" lon="2.54308">
        <ele>17.074931</ele>
        <time>2024-07-31T13:56:29.528Z</time>
      </trkpt>
      <trkpt lat="50.70525" lon="2.54434">
        <ele>17.155069</ele>
        <time>2024-07-31T13:56:42.505Z</time>
      </trkpt>
      <trkpt lat="50.70489" lon="2.546">
        <ele>17.239156</ele>
        <time>2024-07-31T13:56:59.246Z</time>
      </trkpt>
      <trkpt lat="50.70471" lon="2.54657">
        <ele>17.270091</ele>
        <time>2024-07-31T13:57:05.597Z</time>
      </trkpt>
      <trkpt lat="50.70446" lon="2.54707">
        <ele>17.313544</ele>
        <time>2024-07-31T13:57:11.809Z</time>
      </trkpt>
      <trkpt lat="50.70384" lon="2.54793">
        <ele>17.422486</ele>
        <time>2024-07-31T13:57:24.598Z</time>
      </trkpt>
      <trkpt lat="50.70306" lon="2.54904">
        <ele>17.497156</ele>
        <time>2024-07-31T13:57:40.858Z</time>
      </trkpt>
      <trkpt lat="50.70286" lon="2.54946">
        <ele>17.473976</ele>
        <time>2024-07-31T13:57:45.739Z</time>
      </trkpt>
      <trkpt lat="50.70259" lon="2.55012">
        <ele>17.439222</ele>
        <time>2024-07-31T13:57:52.774Z</time>
      </trkpt>
      <trkpt lat="50.70247" lon="2.5505">
        <ele>17.420673</ele>
        <time>2024-07-31T13:57:56.490Z</time>
      </trkpt>
      <trkpt lat="50.70242" lon="2.55063">
        <ele>17.414161</ele>
        <time>2024-07-31T13:57:57.815Z</time>
      </trkpt>
      <trkpt lat="50.70223" lon="2.55106">
        <ele>17.38882</ele>
        <time>2024-07-31T13:58:02.563Z</time>
      </trkpt>
      <trkpt lat="50.70192" lon="2.5516">
        <ele>17.335437</ele>
        <time>2024-07-31T13:58:09.175Z</time>
      </trkpt>
      <trkpt lat="50.70131" lon="2.55228">
        <ele>17.249462</ele>
        <time>2024-07-31T13:58:19.944Z</time>
      </trkpt>
      <trkpt lat="50.701" lon="2.55268">
        <ele>17.203155</ele>
        <time>2024-07-31T13:58:25.628Z</time>
      </trkpt>
      <trkpt lat="50.69986" lon="2.55449">
        <ele>17.120188</ele>
        <time>2024-07-31T13:58:49.326Z</time>
      </trkpt>
      <trkpt lat="50.69959" lon="2.55491">
        <ele>17.105534</ele>
        <time>2024-07-31T13:58:54.912Z</time>
      </trkpt>
      <trkpt lat="50.69448" lon="2.56305">
        <ele>17.245052</ele>
        <time>2024-07-31T14:00:42.582Z</time>
      </trkpt>
      <trkpt lat="50.69311" lon="2.56508">
        <ele>18.07374</ele>
        <time>2024-07-31T14:01:14.478Z</time>
      </trkpt>
      <trkpt lat="50.69294" lon="2.56529">
        <ele>18.120705</ele>
        <time>2024-07-31T14:01:18.264Z</time>
      </trkpt>
      <trkpt lat="50.69265" lon="2.56554">
        <ele>18.191793</ele>
        <time>2024-07-31T14:01:23.971Z</time>
      </trkpt>
      <trkpt lat="50.69253" lon="2.56562">
        <ele>18.220276</ele>
        <time>2024-07-31T14:01:26.303Z</time>
      </trkpt>
      <trkpt lat="50.68679" lon="2.56819">
        <ele>19.396825</ele>
        <time>2024-07-31T14:02:58.079Z</time>
      </trkpt>
      <trkpt lat="50.68628" lon="2.56845">
        <ele>19.430198</ele>
        <time>2024-07-31T14:03:06.379Z</time>
      </trkpt>
      <trkpt lat="50.68603" lon="2.56862">
        <ele>19.409129</ele>
        <time>2024-07-31T14:03:10.529Z</time>
      </trkpt>
      <trkpt lat="50.68571" lon="2.56893">
        <ele>19.38027</ele>
        <time>2024-07-31T14:03:16.020Z</time>
      </trkpt>
      <trkpt lat="50.68552" lon="2.56914">
        <ele>19.361695</ele>
        <time>2024-07-31T14:03:19.444Z</time>
      </trkpt>
      <trkpt lat="50.68525" lon="2.56945">
        <ele>19.336122</ele>
        <time>2024-07-31T14:03:24.000Z</time>
      </trkpt>
      <trkpt lat="50.68485" lon="2.57009">
        <ele>19.274863</ele>
        <time>2024-07-31T14:03:31.938Z</time>
      </trkpt>
      <trkpt lat="50.6843" lon="2.57107">
        <ele>19.123032</ele>
        <time>2024-07-31T14:03:44.006Z</time>
      </trkpt>
      <trkpt lat="50.68403" lon="2.57146">
        <ele>19.055644</ele>
        <time>2024-07-31T14:03:49.159Z</time>
      </trkpt>
      <trkpt lat="50.68369" lon="2.57183">
        <ele>18.981041</ele>
        <time>2024-07-31T14:03:54.826Z</time>
      </trkpt>
      <trkpt lat="50.6831" lon="2.57223">
        <ele>18.825945</ele>
        <time>2024-07-31T14:04:03.727Z</time>
      </trkpt>
      <trkpt lat="50.68287" lon="2.57231">
        <ele>18.770516</ele>
        <time>2024-07-31T14:04:06.916Z</time>
      </trkpt>
      <trkpt lat="50.68293" lon="2.57243">
        <ele>18.747752</ele>
        <time>2024-07-31T14:04:08.258Z</time>
      </trkpt>
      <trkpt lat="50.68315" lon="2.57269">
        <ele>18.681328</ele>
        <time>2024-07-31T14:04:12.157Z</time>
      </trkpt>
      <trkpt lat="50.68319" lon="2.57274">
        <ele>18.669217</ele>
        <time>2024-07-31T14:04:12.887Z</time>
      </trkpt>
      <trkpt lat="50.68336" lon="2.573">
        <ele>18.612025</ele>
        <time>2024-07-31T14:04:16.219Z</time>
      </trkpt>
      <trkpt lat="50.68402" lon="2.57376">
        <ele>18.50484</ele>
        <time>2024-07-31T14:04:27.817Z</time>
      </trkpt>
      <trkpt lat="50.68408" lon="2.57385">
        <ele>18.499801</ele>
        <time>2024-07-31T14:04:28.907Z</time>
      </trkpt>
      <trkpt lat="50.68508" lon="2.57561">
        <ele>18.500212</ele>
        <time>2024-07-31T14:04:50.834Z</time>
      </trkpt>
      <trkpt lat="50.68509" lon="2.57564">
        <ele>18.507438</ele>
        <time>2024-07-31T14:04:51.280Z</time>
      </trkpt>
      <trkpt lat="50.68569" lon="2.57664">
        <ele>18.738836</ele>
        <time>2024-07-31T14:05:05.112Z</time>
      </trkpt>
      <trkpt lat="50.68603" lon="2.57703">
        <ele>18.851912</ele>
        <time>2024-07-31T14:05:12.084Z</time>
      </trkpt>
      <trkpt lat="50.68626" lon="2.57735">
        <ele>18.965421</ele>
        <time>2024-07-31T14:05:17.051Z</time>
      </trkpt>
      <trkpt lat="50.6869" lon="2.57839">
        <ele>19.465555</ele>
        <time>2024-07-31T14:05:32.887Z</time>
      </trkpt>
      <trkpt lat="50.68695" lon="2.57849">
        <ele>19.509727</ele>
        <time>2024-07-31T14:05:34.373Z</time>
      </trkpt>
      <trkpt lat="50.68701" lon="2.57865">
        <ele>19.573783</ele>
        <time>2024-07-31T14:05:36.446Z</time>
      </trkpt>
      <trkpt lat="50.68709" lon="2.57895">
        <ele>19.688293</ele>
        <time>2024-07-31T14:05:40.143Z</time>
      </trkpt>
      <trkpt lat="50.68719" lon="2.58">
        <ele>19.879303</ele>
        <time>2024-07-31T14:05:51.380Z</time>
      </trkpt>
      <trkpt lat="50.68726" lon="2.58075">
        <ele>19.879865</ele>
        <time>2024-07-31T14:05:59.041Z</time>
      </trkpt>
      <trkpt lat="50.68733" lon="2.58118">
        <ele>19.880188</ele>
        <time>2024-07-31T14:06:03.123Z</time>
      </trkpt>
      <trkpt lat="50.68831" lon="2.58482">
        <ele>19.117441</ele>
        <time>2024-07-31T14:06:36.772Z</time>
      </trkpt>
      <trkpt lat="50.68839" lon="2.58511">
        <ele>19.094003</ele>
        <time>2024-07-31T14:06:39.464Z</time>
      </trkpt>
      <trkpt lat="50.68844" lon="2.58531">
        <ele>19.079095</ele>
        <time>2024-07-31T14:06:41.338Z</time>
      </trkpt>
      <trkpt lat="50.68863" lon="2.58599">
        <ele>19.028462</ele>
        <time>2024-07-31T14:06:47.832Z</time>
      </trkpt>
      <trkpt lat="50.69029" lon="2.59133">
        <ele>18.67918</ele>
        <time>2024-07-31T14:07:43.011Z</time>
      </trkpt>
      <trkpt lat="50.6905" lon="2.59196">
        <ele>18.657565</ele>
        <time>2024-07-31T14:07:49.768Z</time>
      </trkpt>
      <trkpt lat="50.69059" lon="2.59217">
        <ele>18.649915</ele>
        <time>2024-07-31T14:07:52.087Z</time>
      </trkpt>
      <trkpt lat="50.69096" lon="2.59308">
        <ele>18.607934</ele>
        <time>2024-07-31T14:08:01.880Z</time>
      </trkpt>
      <trkpt lat="50.69106" lon="2.59342">
        <ele>18.592068</ele>
        <time>2024-07-31T14:08:05.286Z</time>
      </trkpt>
      <trkpt lat="50.69141" lon="2.59508">
        <ele>18.519312</ele>
        <time>2024-07-31T14:08:21.591Z</time>
      </trkpt>
      <trkpt lat="50.69168" lon="2.59694">
        <ele>18.632308</ele>
        <time>2024-07-31T14:08:39.964Z</time>
      </trkpt>
      <trkpt lat="50.69198" lon="2.59901">
        <ele>18.660801</ele>
        <time>2024-07-31T14:09:00.605Z</time>
      </trkpt>
      <trkpt lat="50.69258" lon="2.60166">
        <ele>18.554319</ele>
        <time>2024-07-31T14:09:25.909Z</time>
      </trkpt>
      <trkpt lat="50.69283" lon="2.6028">
        <ele>18.480697</ele>
        <time>2024-07-31T14:09:37.075Z</time>
      </trkpt>
      <trkpt lat="50.69291" lon="2.60326">
        <ele>18.455559</ele>
        <time>2024-07-31T14:09:41.581Z</time>
      </trkpt>
      <trkpt lat="50.69298" lon="2.60406">
        <ele>18.511906</ele>
        <time>2024-07-31T14:09:49.426Z</time>
      </trkpt>
      <trkpt lat="50.69305" lon="2.60646">
        <ele>18.658233</ele>
        <time>2024-07-31T14:10:12.905Z</time>
      </trkpt>
      <trkpt lat="50.69359" lon="2.61011">
        <ele>18.634169</ele>
        <time>2024-07-31T14:10:48.006Z</time>
      </trkpt>
      <trkpt lat="50.69373" lon="2.61119">
        <ele>18.57907</ele>
        <time>2024-07-31T14:10:57.972Z</time>
      </trkpt>
      <trkpt lat="50.69378" lon="2.61241">
        <ele>18.433988</ele>
        <time>2024-07-31T14:11:08.988Z</time>
      </trkpt>
      <trkpt lat="50.69375" lon="2.61288">
        <ele>18.360601</ele>
        <time>2024-07-31T14:11:13.104Z</time>
      </trkpt>
      <trkpt lat="50.69363" lon="2.61329">
        <ele>18.28983</ele>
        <time>2024-07-31T14:11:17.077Z</time>
      </trkpt>
      <trkpt lat="50.69325" lon="2.61433">
        <ele>18.094208</ele>
        <time>2024-07-31T14:11:27.708Z</time>
      </trkpt>
      <trkpt lat="50.69303" lon="2.61498">
        <ele>17.911755</ele>
        <time>2024-07-31T14:11:34.150Z</time>
      </trkpt>
      <trkpt lat="50.693" lon="2.61525">
        <ele>17.842063</ele>
        <time>2024-07-31T14:11:36.621Z</time>
      </trkpt>
      <trkpt lat="50.693" lon="2.61546">
        <ele>17.791753</ele>
        <time>2024-07-31T14:11:38.359Z</time>
      </trkpt>
      <trkpt lat="50.69354" lon="2.61813">
        <ele>17.01496</ele>
        <time>2024-07-31T14:12:01.908Z</time>
      </trkpt>
      <trkpt lat="50.69393" lon="2.62028">
        <ele>16.432481</ele>
        <time>2024-07-31T14:12:20.763Z</time>
      </trkpt>
      <trkpt lat="50.6945" lon="2.6236">
        <ele>16.067952</ele>
        <time>2024-07-31T14:12:51.719Z</time>
      </trkpt>
      <trkpt lat="50.69462" lon="2.62432">
        <ele>16.04287</ele>
        <time>2024-07-31T14:12:58.762Z</time>
      </trkpt>
      <trkpt lat="50.69466" lon="2.62486">
        <ele>16.024381</ele>
        <time>2024-07-31T14:13:03.975Z</time>
      </trkpt>
      <trkpt lat="50.69474" lon="2.62836">
        <ele>16.022052</ele>
        <time>2024-07-31T14:13:37.071Z</time>
      </trkpt>
      <trkpt lat="50.69483" lon="2.63139">
        <ele>15.738394</ele>
        <time>2024-07-31T14:14:04.196Z</time>
      </trkpt>
      <trkpt lat="50.69039" lon="2.63239">
        <ele>15.352204</ele>
        <time>2024-07-31T14:15:09.063Z</time>
      </trkpt>
      <trkpt lat="50.69012" lon="2.63249">
        <ele>15.355099</ele>
        <time>2024-07-31T14:15:13.473Z</time>
      </trkpt>
      <trkpt lat="50.68841" lon="2.6337">
        <ele>15.689434</ele>
        <time>2024-07-31T14:15:42.940Z</time>
      </trkpt>
      <trkpt lat="50.68803" lon="2.63405">
        <ele>15.752579</ele>
        <time>2024-07-31T14:15:49.488Z</time>
      </trkpt>
      <trkpt lat="50.68713" lon="2.63512">
        <ele>15.858392</ele>
        <time>2024-07-31T14:16:06.622Z</time>
      </trkpt>
      <trkpt lat="50.68684" lon="2.63535">
        <ele>15.888423</ele>
        <time>2024-07-31T14:16:11.473Z</time>
      </trkpt>
      <trkpt lat="50.68646" lon="2.63551">
        <ele>15.913679</ele>
        <time>2024-07-31T14:16:17.445Z</time>
      </trkpt>
      <trkpt lat="50.68614" lon="2.63562">
        <ele>15.931132</ele>
        <time>2024-07-31T14:16:22.368Z</time>
      </trkpt>
      <trkpt lat="50.68554" lon="2.63582">
        <ele>15.964389</ele>
        <time>2024-07-31T14:16:31.763Z</time>
      </trkpt>
      <trkpt lat="50.68342" lon="2.63628">
        <ele>16.035114</ele>
        <time>2024-07-31T14:17:03.363Z</time>
      </trkpt>
      <trkpt lat="50.68327" lon="2.63634">
        <ele>16.03884</ele>
        <time>2024-07-31T14:17:05.632Z</time>
      </trkpt>
      <trkpt lat="50.684" lon="2.6392">
        <ele>16.227313</ele>
        <time>2024-07-31T14:17:35.752Z</time>
      </trkpt>
      <trkpt lat="50.68318" lon="2.63959">
        <ele>16.116651</ele>
        <time>2024-07-31T14:17:48.012Z</time>
      </trkpt>
      <trkpt lat="50.6825" lon="2.63983">
        <ele>16.025959</ele>
        <time>2024-07-31T14:17:57.851Z</time>
      </trkpt>
      <trkpt lat="50.68175" lon="2.64002">
        <ele>15.94518</ele>
        <time>2024-07-31T14:18:08.637Z</time>
      </trkpt>
      <trkpt lat="50.6812" lon="2.64007">
        <ele>15.890167</ele>
        <time>2024-07-31T14:18:16.644Z</time>
      </trkpt>
      <trkpt lat="50.6808" lon="2.64001">
        <ele>15.85032</ele>
        <time>2024-07-31T14:18:22.499Z</time>
      </trkpt>
      <trkpt lat="50.68035" lon="2.63975">
        <ele>15.815757</ele>
        <time>2024-07-31T14:18:29.607Z</time>
      </trkpt>
      <trkpt lat="50.6801" lon="2.63952">
        <ele>15.804426</ele>
        <time>2024-07-31T14:18:33.954Z</time>
      </trkpt>
      <trkpt lat="50.67978" lon="2.63905">
        <ele>15.787653</ele>
        <time>2024-07-31T14:18:40.318Z</time>
      </trkpt>
      <trkpt lat="50.67961" lon="2.63884">
        <ele>15.779287</ele>
        <time>2024-07-31T14:18:43.498Z</time>
      </trkpt>
      <trkpt lat="50.67952" lon="2.63879">
        <ele>15.775655</ele>
        <time>2024-07-31T14:18:44.851Z</time>
      </trkpt>
      <trkpt lat="50.67943" lon="2.63878">
        <ele>15.771965</ele>
        <time>2024-07-31T14:18:46.227Z</time>
      </trkpt>
      <trkpt lat="50.6783" lon="2.63894">
        <ele>15.681222</ele>
        <time>2024-07-31T14:19:02.501Z</time>
      </trkpt>
      <trkpt lat="50.67697" lon="2.639">
        <ele>15.56613</ele>
        <time>2024-07-31T14:19:21.631Z</time>
      </trkpt>
      <trkpt lat="50.67673" lon="2.6391">
        <ele>15.571409</ele>
        <time>2024-07-31T14:19:25.392Z</time>
      </trkpt>
      <trkpt lat="50.67624" lon="2.63949">
        <ele>15.582929</ele>
        <time>2024-07-31T14:19:33.783Z</time>
      </trkpt>
      <trkpt lat="50.67585" lon="2.63969">
        <ele>15.59145</ele>
        <time>2024-07-31T14:19:39.924Z</time>
      </trkpt>
      <trkpt lat="50.67503" lon="2.63997">
        <ele>15.588169</ele>
        <time>2024-07-31T14:19:52.452Z</time>
      </trkpt>
      <trkpt lat="50.67481" lon="2.64001">
        <ele>15.582828</ele>
        <time>2024-07-31T14:19:55.773Z</time>
      </trkpt>
      <trkpt lat="50.67471" lon="2.63998">
        <ele>15.580308</ele>
        <time>2024-07-31T14:19:57.400Z</time>
      </trkpt>
      <trkpt lat="50.67462" lon="2.63991">
        <ele>15.578102</ele>
        <time>2024-07-31T14:19:58.761Z</time>
      </trkpt>
      <trkpt lat="50.67452" lon="2.63972">
        <ele>15.574244</ele>
        <time>2024-07-31T14:20:01.210Z</time>
      </trkpt>
      <trkpt lat="50.6744" lon="2.63958">
        <ele>15.570785</ele>
        <time>2024-07-31T14:20:03.396Z</time>
      </trkpt>
      <trkpt lat="50.67433" lon="2.63953">
        <ele>15.568952</ele>
        <time>2024-07-31T14:20:04.520Z</time>
      </trkpt>
      <trkpt lat="50.67417" lon="2.63954">
        <ele>15.565214</ele>
        <time>2024-07-31T14:20:06.875Z</time>
      </trkpt>
      <trkpt lat="50.67317" lon="2.63973">
        <ele>15.513471</ele>
        <time>2024-07-31T14:20:21.256Z</time>
      </trkpt>
      <trkpt lat="50.67144" lon="2.64023">
        <ele>15.423664</ele>
        <time>2024-07-31T14:20:46.890Z</time>
      </trkpt>
      <trkpt lat="50.67128" lon="2.64028">
        <ele>15.420403</ele>
        <time>2024-07-31T14:20:49.341Z</time>
      </trkpt>
      <trkpt lat="50.67068" lon="2.64049">
        <ele>15.408263</ele>
        <time>2024-07-31T14:20:58.455Z</time>
      </trkpt>
      <trkpt lat="50.67042" lon="2.64066">
        <ele>15.402735</ele>
        <time>2024-07-31T14:21:02.634Z</time>
      </trkpt>
      <trkpt lat="50.67032" lon="2.64077">
        <ele>15.400314</ele>
        <time>2024-07-31T14:21:04.479Z</time>
      </trkpt>
      <trkpt lat="50.67021" lon="2.64096">
        <ele>15.404841</ele>
        <time>2024-07-31T14:21:06.967Z</time>
      </trkpt>
      <trkpt lat="50.66998" lon="2.64153">
        <ele>15.41864</ele>
        <time>2024-07-31T14:21:13.321Z</time>
      </trkpt>
      <trkpt lat="50.6699" lon="2.64168">
        <ele>15.422621</ele>
        <time>2024-07-31T14:21:15.158Z</time>
      </trkpt>
      <trkpt lat="50.66976" lon="2.64185">
        <ele>15.428618</ele>
        <time>2024-07-31T14:21:17.913Z</time>
      </trkpt>
      <trkpt lat="50.66915" lon="2.64232">
        <ele>15.450634</ele>
        <time>2024-07-31T14:21:27.982Z</time>
      </trkpt>
      <trkpt lat="50.66896" lon="2.64241">
        <ele>15.457159</ele>
        <time>2024-07-31T14:21:31.004Z</time>
      </trkpt>
      <trkpt lat="50.66835" lon="2.6426">
        <ele>15.494347</ele>
        <time>2024-07-31T14:21:40.407Z</time>
      </trkpt>
      <trkpt lat="50.66834" lon="2.64284">
        <ele>15.503814</ele>
        <time>2024-07-31T14:21:43.495Z</time>
      </trkpt>
      <trkpt lat="50.66774" lon="2.64479">
        <ele>15.575715</ele>
        <time>2024-07-31T14:22:11.534Z</time>
      </trkpt>
      <trkpt lat="50.66641" lon="2.64974">
        <ele>15.585936</ele>
        <time>2024-07-31T14:23:20.425Z</time>
      </trkpt>
      <trkpt lat="50.66587" lon="2.65247">
        <ele>15.514992</ele>
        <time>2024-07-31T14:23:56.953Z</time>
      </trkpt>
      <trkpt lat="50.66517" lon="2.6551">
        <ele>15.501162</ele>
        <time>2024-07-31T14:24:33.198Z</time>
      </trkpt>
      <trkpt lat="50.66476" lon="2.6575">
        <ele>15.514315</ele>
        <time>2024-07-31T14:25:05.118Z</time>
      </trkpt>
      <trkpt lat="50.66468" lon="2.6578">
        <ele>15.535265</ele>
        <time>2024-07-31T14:25:09.394Z</time>
      </trkpt>
      <trkpt lat="50.66453" lon="2.65814">
        <ele>15.577076</ele>
        <time>2024-07-31T14:25:14.688Z</time>
      </trkpt>
      <trkpt lat="50.66426" lon="2.6588">
        <ele>15.65893</ele>
        <time>2024-07-31T14:25:25.041Z</time>
      </trkpt>
      <trkpt lat="50.6642" lon="2.65901">
        <ele>15.68302</ele>
        <time>2024-07-31T14:25:28.143Z</time>
      </trkpt>
      <trkpt lat="50.66421" lon="2.65915">
        <ele>15.697146</ele>
        <time>2024-07-31T14:25:29.952Z</time>
      </trkpt>
      <trkpt lat="50.66424" lon="2.65929">
        <ele>15.71245</ele>
        <time>2024-07-31T14:25:31.902Z</time>
      </trkpt>
      <trkpt lat="50.66486" lon="2.66085">
        <ele>15.950893</ele>
        <time>2024-07-31T14:25:57.002Z</time>
      </trkpt>
      <trkpt lat="50.66543" lon="2.66242">
        <ele>16.231332</ele>
        <time>2024-07-31T14:26:21.127Z</time>
      </trkpt>
      <trkpt lat="50.66432" lon="2.66336">
        <ele>16.215449</ele>
        <time>2024-07-31T14:26:39.961Z</time>
      </trkpt>
      <trkpt lat="50.66335" lon="2.66444">
        <ele>16.187943</ele>
        <time>2024-07-31T14:26:56.816Z</time>
      </trkpt>
      <trkpt lat="50.66357" lon="2.66499">
        <ele>16.18152</ele>
        <time>2024-07-31T14:27:02.905Z</time>
      </trkpt>
      <trkpt lat="50.66409" lon="2.66631">
        <ele>16.171348</ele>
        <time>2024-07-31T14:27:17.638Z</time>
      </trkpt>
      <trkpt lat="50.66436" lon="2.66689">
        <ele>16.179354</ele>
        <time>2024-07-31T14:27:24.457Z</time>
      </trkpt>
      <trkpt lat="50.66501" lon="2.66792">
        <ele>16.195362</ele>
        <time>2024-07-31T14:27:38.298Z</time>
      </trkpt>
      <trkpt lat="50.66552" lon="2.66856">
        <ele>16.2</ele>
        <time>2024-07-31T14:27:47.932Z</time>
      </trkpt>
      <trkpt lat="50.66698" lon="2.67014">
        <ele>16.191359</ele>
        <time>2024-07-31T14:28:14.012Z</time>
      </trkpt>
      <trkpt lat="50.66717" lon="2.67042">
        <ele>16.185095</ele>
        <time>2024-07-31T14:28:17.922Z</time>
      </trkpt>
      <trkpt lat="50.66735" lon="2.67077">
        <ele>16.178197</ele>
        <time>2024-07-31T14:28:22.196Z</time>
      </trkpt>
      <trkpt lat="50.66868" lon="2.67325">
        <ele>16.067752</ele>
        <time>2024-07-31T14:28:52.548Z</time>
      </trkpt>
      <trkpt lat="50.67013" lon="2.67628">
        <ele>15.829207</ele>
        <time>2024-07-31T14:29:26.993Z</time>
      </trkpt>
      <trkpt lat="50.67033" lon="2.67676">
        <ele>15.820261</ele>
        <time>2024-07-31T14:29:32.299Z</time>
      </trkpt>
      <trkpt lat="50.67122" lon="2.67939">
        <ele>15.770642</ele>
        <time>2024-07-31T14:30:00.336Z</time>
      </trkpt>
      <trkpt lat="50.67172" lon="2.68053">
        <ele>15.724868</ele>
        <time>2024-07-31T14:30:13.049Z</time>
      </trkpt>
      <trkpt lat="50.67215" lon="2.68152">
        <ele>15.676079</ele>
        <time>2024-07-31T14:30:24.158Z</time>
      </trkpt>
      <trkpt lat="50.67229" lon="2.68187">
        <ele>15.653912</ele>
        <time>2024-07-31T14:30:27.963Z</time>
      </trkpt>
      <trkpt lat="50.67238" lon="2.68219">
        <ele>15.634875</ele>
        <time>2024-07-31T14:30:31.229Z</time>
      </trkpt>
      <trkpt lat="50.6724" lon="2.6823">
        <ele>15.628819</ele>
        <time>2024-07-31T14:30:32.266Z</time>
      </trkpt>
      <trkpt lat="50.67262" lon="2.6833">
        <ele>15.57198</ele>
        <time>2024-07-31T14:30:41.922Z</time>
      </trkpt>
      <trkpt lat="50.6728" lon="2.68398">
        <ele>15.542021</ele>
        <time>2024-07-31T14:30:48.615Z</time>
      </trkpt>
      <trkpt lat="50.67292" lon="2.68436">
        <ele>15.535169</ele>
        <time>2024-07-31T14:30:52.574Z</time>
      </trkpt>
      <trkpt lat="50.67305" lon="2.68459">
        <ele>15.530287</ele>
        <time>2024-07-31T14:30:55.442Z</time>
      </trkpt>
      <trkpt lat="50.67322" lon="2.68473">
        <ele>15.525546</ele>
        <time>2024-07-31T14:30:58.248Z</time>
      </trkpt>
      <trkpt lat="50.67339" lon="2.68478">
        <ele>15.521104</ele>
        <time>2024-07-31T14:31:00.850Z</time>
      </trkpt>
      <trkpt lat="50.67404" lon="2.6846">
        <ele>15.504758</ele>
        <time>2024-07-31T14:31:10.485Z</time>
      </trkpt>
      <trkpt lat="50.67426" lon="2.68461">
        <ele>15.509688</ele>
        <time>2024-07-31T14:31:13.787Z</time>
      </trkpt>
      <trkpt lat="50.67447" lon="2.68473">
        <ele>15.535353</ele>
        <time>2024-07-31T14:31:17.123Z</time>
      </trkpt>
      <trkpt lat="50.67459" lon="2.68491">
        <ele>15.554509</ele>
        <time>2024-07-31T14:31:19.639Z</time>
      </trkpt>
      <trkpt lat="50.67474" lon="2.68527">
        <ele>15.58628</ele>
        <time>2024-07-31T14:31:23.821Z</time>
      </trkpt>
      <trkpt lat="50.67506" lon="2.68622">
        <ele>15.664426</ele>
        <time>2024-07-31T14:31:34.329Z</time>
      </trkpt>
      <trkpt lat="50.67511" lon="2.68648">
        <ele>15.684337</ele>
        <time>2024-07-31T14:31:37.018Z</time>
      </trkpt>
      <trkpt lat="50.67522" lon="2.68733">
        <ele>15.751853</ele>
        <time>2024-07-31T14:31:45.783Z</time>
      </trkpt>
      <trkpt lat="50.67524" lon="2.68744">
        <ele>15.761353</ele>
        <time>2024-07-31T14:31:46.920Z</time>
      </trkpt>
      <trkpt lat="50.67549" lon="2.69053">
        <ele>15.933882</ele>
        <time>2024-07-31T14:32:16.764Z</time>
      </trkpt>
      <trkpt lat="50.67557" lon="2.6914">
        <ele>15.930236</ele>
        <time>2024-07-31T14:32:24.957Z</time>
      </trkpt>
      <trkpt lat="50.67567" lon="2.69178">
        <ele>15.928544</ele>
        <time>2024-07-31T14:32:28.779Z</time>
      </trkpt>
      <trkpt lat="50.6763" lon="2.69349">
        <ele>15.893023</ele>
        <time>2024-07-31T14:32:46.855Z</time>
      </trkpt>
      <trkpt lat="50.67711" lon="2.69571">
        <ele>15.90695</ele>
        <time>2024-07-31T14:33:11.212Z</time>
      </trkpt>
      <trkpt lat="50.67718" lon="2.69594">
        <ele>15.918493</ele>
        <time>2024-07-31T14:33:13.618Z</time>
      </trkpt>
      <trkpt lat="50.67721" lon="2.69621">
        <ele>15.931051</ele>
        <time>2024-07-31T14:33:16.192Z</time>
      </trkpt>
      <trkpt lat="50.67718" lon="2.69723">
        <ele>15.977825</ele>
        <time>2024-07-31T14:33:26.039Z</time>
      </trkpt>
      <trkpt lat="50.6772" lon="2.69754">
        <ele>15.993786</ele>
        <time>2024-07-31T14:33:29.109Z</time>
      </trkpt>
      <trkpt lat="50.67729" lon="2.69791">
        <ele>16.016908</ele>
        <time>2024-07-31T14:33:32.863Z</time>
      </trkpt>
      <trkpt lat="50.67764" lon="2.699">
        <ele>16.08857</ele>
        <time>2024-07-31T14:33:44.532Z</time>
      </trkpt>
      <trkpt lat="50.67811" lon="2.70047">
        <ele>16.166353</ele>
        <time>2024-07-31T14:34:00.392Z</time>
      </trkpt>
      <trkpt lat="50.67814" lon="2.70053">
        <ele>16.167938</ele>
        <time>2024-07-31T14:34:01.044Z</time>
      </trkpt>
      <trkpt lat="50.67817" lon="2.70063">
        <ele>16.170567</ele>
        <time>2024-07-31T14:34:02.144Z</time>
      </trkpt>
      <trkpt lat="50.67819" lon="2.70069">
        <ele>16.172055</ele>
        <time>2024-07-31T14:34:02.775Z</time>
      </trkpt>
      <trkpt lat="50.67868" lon="2.70197">
        <ele>16.206153</ele>
        <time>2024-07-31T14:34:16.725Z</time>
      </trkpt>
      <trkpt lat="50.67933" lon="2.70355">
        <ele>16.369687</ele>
        <time>2024-07-31T14:34:35.501Z</time>
      </trkpt>
      <trkpt lat="50.67956" lon="2.7041">
        <ele>16.445496</ele>
        <time>2024-07-31T14:34:41.961Z</time>
      </trkpt>
      <trkpt lat="50.67972" lon="2.70464">
        <ele>16.513021</ele>
        <time>2024-07-31T14:34:47.707Z</time>
      </trkpt>
      <trkpt lat="50.67977" lon="2.7049">
        <ele>16.543132</ele>
        <time>2024-07-31T14:34:50.354Z</time>
      </trkpt>
      <trkpt lat="50.67979" lon="2.70524">
        <ele>16.540812</ele>
        <time>2024-07-31T14:34:53.737Z</time>
      </trkpt>
      <trkpt lat="50.67978" lon="2.7055">
        <ele>16.539074</ele>
        <time>2024-07-31T14:34:56.267Z</time>
      </trkpt>
      <trkpt lat="50.67972" lon="2.70579">
        <ele>16.537016</ele>
        <time>2024-07-31T14:34:59.279Z</time>
      </trkpt>
      <trkpt lat="50.67953" lon="2.70624">
        <ele>16.533436</ele>
        <time>2024-07-31T14:35:04.424Z</time>
      </trkpt>
      <trkpt lat="50.67883" lon="2.7074">
        <ele>16.514419</ele>
        <time>2024-07-31T14:35:18.825Z</time>
      </trkpt>
      <trkpt lat="50.67865" lon="2.7077">
        <ele>16.496246</ele>
        <time>2024-07-31T14:35:22.596Z</time>
      </trkpt>
      <trkpt lat="50.67842" lon="2.70803">
        <ele>16.474571</ele>
        <time>2024-07-31T14:35:27.175Z</time>
      </trkpt>
      <trkpt lat="50.67822" lon="2.70823">
        <ele>16.457839</ele>
        <time>2024-07-31T14:35:30.723Z</time>
      </trkpt>
      <trkpt lat="50.67804" lon="2.70836">
        <ele>16.444141</ele>
        <time>2024-07-31T14:35:33.600Z</time>
      </trkpt>
      <trkpt lat="50.67745" lon="2.70866">
        <ele>16.401345</ele>
        <time>2024-07-31T14:35:42.653Z</time>
      </trkpt>
      <trkpt lat="50.67738" lon="2.70869">
        <ele>16.398326</ele>
        <time>2024-07-31T14:35:43.729Z</time>
      </trkpt>
      <trkpt lat="50.67731" lon="2.70873">
        <ele>16.396888</ele>
        <time>2024-07-31T14:35:44.791Z</time>
      </trkpt>
      <trkpt lat="50.67693" lon="2.70902">
        <ele>16.388561</ele>
        <time>2024-07-31T14:35:50.942Z</time>
      </trkpt>
      <trkpt lat="50.66882" lon="2.71658">
        <ele>16.179542</ele>
        <time>2024-07-31T14:38:10.159Z</time>
      </trkpt>
      <trkpt lat="50.66622" lon="2.71892">
        <ele>16.032232</ele>
        <time>2024-07-31T14:38:53.501Z</time>
      </trkpt>
      <trkpt lat="50.66566" lon="2.71944">
        <ele>16.037197</ele>
        <time>2024-07-31T14:39:03.013Z</time>
      </trkpt>
      <trkpt lat="50.66541" lon="2.71971">
        <ele>16.039545</ele>
        <time>2024-07-31T14:39:07.562Z</time>
      </trkpt>
      <trkpt lat="50.66349" lon="2.72215">
        <ele>16.163644</ele>
        <time>2024-07-31T14:39:45.093Z</time>
      </trkpt>
      <trkpt lat="50.66335" lon="2.7223">
        <ele>16.15403</ele>
        <time>2024-07-31T14:39:47.725Z</time>
      </trkpt>
      <trkpt lat="50.66326" lon="2.72234">
        <ele>16.149238</ele>
        <time>2024-07-31T14:39:49.024Z</time>
      </trkpt>
      <trkpt lat="50.66305" lon="2.72236">
        <ele>16.137654</ele>
        <time>2024-07-31T14:39:52.155Z</time>
      </trkpt>
      <trkpt lat="50.66298" lon="2.72257">
        <ele>16.129424</ele>
        <time>2024-07-31T14:39:55.188Z</time>
      </trkpt>
      <trkpt lat="50.66234" lon="2.72336">
        <ele>16.084833</ele>
        <time>2024-07-31T14:40:11.384Z</time>
      </trkpt>
      <trkpt lat="50.66189" lon="2.72405">
        <ele>16.038626</ele>
        <time>2024-07-31T14:40:23.679Z</time>
      </trkpt>
      <trkpt lat="50.66163" lon="2.72451">
        <ele>16.006917</ele>
        <time>2024-07-31T14:40:31.332Z</time>
      </trkpt>
      <trkpt lat="50.66132" lon="2.72514">
        <ele>15.965238</ele>
        <time>2024-07-31T14:40:41.449Z</time>
      </trkpt>
      <trkpt lat="50.65963" lon="2.72883">
        <ele>15.986631</ele>
        <time>2024-07-31T14:41:40.159Z</time>
      </trkpt>
      <trkpt lat="50.65889" lon="2.73027">
        <ele>16.004224</ele>
        <time>2024-07-31T14:42:03.940Z</time>
      </trkpt>
      <trkpt lat="50.6587" lon="2.73059">
        <ele>16.017823</ele>
        <time>2024-07-31T14:42:09.649Z</time>
      </trkpt>
      <trkpt lat="50.65847" lon="2.7308">
        <ele>16.030517</ele>
        <time>2024-07-31T14:42:14.958Z</time>
      </trkpt>
      <trkpt lat="50.65763" lon="2.73125">
        <ele>16.073593</ele>
        <time>2024-07-31T14:42:33.010Z</time>
      </trkpt>
      <trkpt lat="50.65743" lon="2.73141">
        <ele>16.084353</ele>
        <time>2024-07-31T14:42:37.528Z</time>
      </trkpt>
      <trkpt lat="50.65703" lon="2.73198">
        <ele>16.086706</ele>
        <time>2024-07-31T14:42:48.509Z</time>
      </trkpt>
      <trkpt lat="50.65625" lon="2.7333">
        <ele>16.075393</ele>
        <time>2024-07-31T14:43:11.618Z</time>
      </trkpt>
      <trkpt lat="50.65594" lon="2.73364">
        <ele>16.072238</ele>
        <time>2024-07-31T14:43:17.085Z</time>
      </trkpt>
      <trkpt lat="50.65583" lon="2.73369">
        <ele>16.071604</ele>
        <time>2024-07-31T14:43:18.783Z</time>
      </trkpt>
      <trkpt lat="50.65559" lon="2.73366">
        <ele>16.070296</ele>
        <time>2024-07-31T14:43:22.301Z</time>
      </trkpt>
      <trkpt lat="50.65535" lon="2.73364">
        <ele>16.068988</ele>
        <time>2024-07-31T14:43:25.859Z</time>
      </trkpt>
      <trkpt lat="50.65504" lon="2.73369">
        <ele>16.06728</ele>
        <time>2024-07-31T14:43:30.534Z</time>
      </trkpt>
      <trkpt lat="50.65478" lon="2.73397">
        <ele>16.065597</ele>
        <time>2024-07-31T14:43:35.194Z</time>
      </trkpt>
      <trkpt lat="50.65447" lon="2.73445">
        <ele>16.06322</ele>
        <time>2024-07-31T14:43:41.630Z</time>
      </trkpt>
      <trkpt lat="50.65436" lon="2.73452">
        <ele>16.055544</ele>
        <time>2024-07-31T14:43:43.280Z</time>
      </trkpt>
      <trkpt lat="50.65403" lon="2.73458">
        <ele>16.029732</ele>
        <time>2024-07-31T14:43:48.168Z</time>
      </trkpt>
      <trkpt lat="50.65385" lon="2.73471">
        <ele>16.014607</ele>
        <time>2024-07-31T14:43:51.024Z</time>
      </trkpt>
      <trkpt lat="50.65365" lon="2.73504">
        <ele>15.992285</ele>
        <time>2024-07-31T14:43:55.284Z</time>
      </trkpt>
      <trkpt lat="50.65287" lon="2.73674">
        <ele>15.843053</ele>
        <time>2024-07-31T14:44:14.528Z</time>
      </trkpt>
      <trkpt lat="50.6523" lon="2.73771">
        <ele>15.690048</ele>
        <time>2024-07-31T14:44:26.379Z</time>
      </trkpt>
      <trkpt lat="50.65206" lon="2.7382">
        <ele>15.619135</ele>
        <time>2024-07-31T14:44:31.854Z</time>
      </trkpt>
      <trkpt lat="50.65112" lon="2.74084">
        <ele>15.315327</ele>
        <time>2024-07-31T14:44:59.376Z</time>
      </trkpt>
      <trkpt lat="50.65103" lon="2.74094">
        <ele>15.303218</ele>
        <time>2024-07-31T14:45:00.933Z</time>
      </trkpt>
      <trkpt lat="50.65094" lon="2.74098">
        <ele>15.293075</ele>
        <time>2024-07-31T14:45:02.224Z</time>
      </trkpt>
      <trkpt lat="50.65082" lon="2.74096">
        <ele>15.279</ele>
        <time>2024-07-31T14:45:04.027Z</time>
      </trkpt>
      <trkpt lat="50.65046" lon="2.74059">
        <ele>15.231248</ele>
        <time>2024-07-31T14:45:10.103Z</time>
      </trkpt>
      <trkpt lat="50.65032" lon="2.74052">
        <ele>15.215246</ele>
        <time>2024-07-31T14:45:12.135Z</time>
      </trkpt>
      <trkpt lat="50.65015" lon="2.74073">
        <ele>15.190902</ele>
        <time>2024-07-31T14:45:15.273Z</time>
      </trkpt>
      <trkpt lat="50.6495" lon="2.74181">
        <ele>15.075407</ele>
        <time>2024-07-31T14:45:28.799Z</time>
      </trkpt>
      <trkpt lat="50.64977" lon="2.74241">
        <ele>15.006433</ele>
        <time>2024-07-31T14:45:35.408Z</time>
      </trkpt>
      <trkpt lat="50.65028" lon="2.74315">
        <ele>14.902693</ele>
        <time>2024-07-31T14:45:45.309Z</time>
      </trkpt>
      <trkpt lat="50.6504" lon="2.74329">
        <ele>14.881297</ele>
        <time>2024-07-31T14:45:47.393Z</time>
      </trkpt>
      <trkpt lat="50.65064" lon="2.74345">
        <ele>14.848266</ele>
        <time>2024-07-31T14:45:51.212Z</time>
      </trkpt>
      <trkpt lat="50.6509" lon="2.74375">
        <ele>14.850018</ele>
        <time>2024-07-31T14:45:55.998Z</time>
      </trkpt>
      <trkpt lat="50.65276" lon="2.74635">
        <ele>14.979982</ele>
        <time>2024-07-31T14:46:33.060Z</time>
      </trkpt>
      <trkpt lat="50.65309" lon="2.74691">
        <ele>15.036818</ele>
        <time>2024-07-31T14:46:40.683Z</time>
      </trkpt>
      <trkpt lat="50.65356" lon="2.74794">
        <ele>15.151357</ele>
        <time>2024-07-31T14:46:53.359Z</time>
      </trkpt>
      <trkpt lat="50.65437" lon="2.74966">
        <ele>15.338476</ele>
        <time>2024-07-31T14:47:14.400Z</time>
      </trkpt>
      <trkpt lat="50.65514" lon="2.75129">
        <ele>15.253419</ele>
        <time>2024-07-31T14:47:33.118Z</time>
      </trkpt>
      <trkpt lat="50.65554" lon="2.75207">
        <ele>15.187909</ele>
        <time>2024-07-31T14:47:42.282Z</time>
      </trkpt>
      <trkpt lat="50.65564" lon="2.75231">
        <ele>15.15649</ele>
        <time>2024-07-31T14:47:44.801Z</time>
      </trkpt>
      <trkpt lat="50.65609" lon="2.75344">
        <ele>15.011617</ele>
        <time>2024-07-31T14:47:56.484Z</time>
      </trkpt>
      <trkpt lat="50.65631" lon="2.75398">
        <ele>14.942519</ele>
        <time>2024-07-31T14:48:02.241Z</time>
      </trkpt>
      <trkpt lat="50.65651" lon="2.75445">
        <ele>14.927368</ele>
        <time>2024-07-31T14:48:07.576Z</time>
      </trkpt>
      <trkpt lat="50.65768" lon="2.75702">
        <ele>15.026132</ele>
        <time>2024-07-31T14:48:38.038Z</time>
      </trkpt>
      <trkpt lat="50.65803" lon="2.75755">
        <ele>15.068509</ele>
        <time>2024-07-31T14:48:45.508Z</time>
      </trkpt>
      <trkpt lat="50.65944" lon="2.75959">
        <ele>15.223656</ele>
        <time>2024-07-31T14:49:14.284Z</time>
      </trkpt>
      <trkpt lat="50.65972" lon="2.75999">
        <ele>15.252646</ele>
        <time>2024-07-31T14:49:20.098Z</time>
      </trkpt>
      <trkpt lat="50.66006" lon="2.76036">
        <ele>15.281904</ele>
        <time>2024-07-31T14:49:26.376Z</time>
      </trkpt>
      <trkpt lat="50.66038" lon="2.76056">
        <ele>15.277747</ele>
        <time>2024-07-31T14:49:31.481Z</time>
      </trkpt>
      <trkpt lat="50.66144" lon="2.76126">
        <ele>15.263736</ele>
        <time>2024-07-31T14:49:48.363Z</time>
      </trkpt>
      <trkpt lat="50.66234" lon="2.76198">
        <ele>15.132764</ele>
        <time>2024-07-31T14:50:03.080Z</time>
      </trkpt>
      <trkpt lat="50.66203" lon="2.76314">
        <ele>14.993385</ele>
        <time>2024-07-31T14:50:14.299Z</time>
      </trkpt>
      <trkpt lat="50.66175" lon="2.76444">
        <ele>15.026121</ele>
        <time>2024-07-31T14:50:26.565Z</time>
      </trkpt>
      <trkpt lat="50.6616" lon="2.76478">
        <ele>15.062734</ele>
        <time>2024-07-31T14:50:30.350Z</time>
      </trkpt>
      <trkpt lat="50.66072" lon="2.76577">
        <ele>15.296937</ele>
        <time>2024-07-31T14:50:47.890Z</time>
      </trkpt>
      <trkpt lat="50.6604" lon="2.76612">
        <ele>15.57594</ele>
        <time>2024-07-31T14:50:54.663Z</time>
      </trkpt>
      <trkpt lat="50.66016" lon="2.76634">
        <ele>15.778793</ele>
        <time>2024-07-31T14:50:59.818Z</time>
      </trkpt>
      <trkpt lat="50.65983" lon="2.76659">
        <ele>16.0429</ele>
        <time>2024-07-31T14:51:06.435Z</time>
      </trkpt>
      <trkpt lat="50.65927" lon="2.76704">
        <ele>16.501716</ele>
        <time>2024-07-31T14:51:18.014Z</time>
      </trkpt>
      <trkpt lat="50.65913" lon="2.76714">
        <ele>16.534633</ele>
        <time>2024-07-31T14:51:20.683Z</time>
      </trkpt>
      <trkpt lat="50.65882" lon="2.76747">
        <ele>16.619847</ele>
        <time>2024-07-31T14:51:27.468Z</time>
      </trkpt>
      <trkpt lat="50.65753" lon="2.769">
        <ele>16.838622</ele>
        <time>2024-07-31T14:51:51.196Z</time>
      </trkpt>
      <trkpt lat="50.65698" lon="2.76974">
        <ele>16.704566</ele>
        <time>2024-07-31T14:52:01.103Z</time>
      </trkpt>
      <trkpt lat="50.65615" lon="2.77092">
        <ele>16.537696</ele>
        <time>2024-07-31T14:52:16.906Z</time>
      </trkpt>
      <trkpt lat="50.65578" lon="2.77144">
        <ele>16.498289</ele>
        <time>2024-07-31T14:52:23.955Z</time>
      </trkpt>
      <trkpt lat="50.65505" lon="2.77246">
        <ele>16.43298</ele>
        <time>2024-07-31T14:52:38.561Z</time>
      </trkpt>
      <trkpt lat="50.65447" lon="2.77326">
        <ele>16.522322</ele>
        <time>2024-07-31T14:52:50.367Z</time>
      </trkpt>
      <trkpt lat="50.65413" lon="2.77372">
        <ele>16.57437</ele>
        <time>2024-07-31T14:52:57.286Z</time>
      </trkpt>
      <trkpt lat="50.65222" lon="2.77637">
        <ele>16.794549</ele>
        <time>2024-07-31T14:53:36.103Z</time>
      </trkpt>
      <trkpt lat="50.65121" lon="2.77769">
        <ele>16.867809</ele>
        <time>2024-07-31T14:53:55.749Z</time>
      </trkpt>
      <trkpt lat="50.64786" lon="2.78153">
        <ele>16.807919</ele>
        <time>2024-07-31T14:54:56.724Z</time>
      </trkpt>
      <trkpt lat="50.64532" lon="2.78438">
        <ele>16.764435</ele>
        <time>2024-07-31T14:55:42.771Z</time>
      </trkpt>
      <trkpt lat="50.64511" lon="2.78451">
        <ele>16.754521</ele>
        <time>2024-07-31T14:55:46.274Z</time>
      </trkpt>
      <trkpt lat="50.64504" lon="2.78444">
        <ele>16.740692</ele>
        <time>2024-07-31T14:55:47.355Z</time>
      </trkpt>
      <trkpt lat="50.64497" lon="2.78447">
        <ele>16.727508</ele>
        <time>2024-07-31T14:55:48.443Z</time>
      </trkpt>
      <trkpt lat="50.64493" lon="2.78458">
        <ele>16.714326</ele>
        <time>2024-07-31T14:55:49.596Z</time>
      </trkpt>
      <trkpt lat="50.64495" lon="2.7847">
        <ele>16.700923</ele>
        <time>2024-07-31T14:55:50.789Z</time>
      </trkpt>
      <trkpt lat="50.6449" lon="2.78481">
        <ele>16.685985</ele>
        <time>2024-07-31T14:55:51.991Z</time>
      </trkpt>
      <trkpt lat="50.64319" lon="2.78694">
        <ele>16.358101</ele>
        <time>2024-07-31T14:56:22.526Z</time>
      </trkpt>
      <trkpt lat="50.64184" lon="2.78831">
        <ele>16.332705</ele>
        <time>2024-07-31T14:56:46.224Z</time>
      </trkpt>
      <trkpt lat="50.64165" lon="2.78868">
        <ele>16.374271</ele>
        <time>2024-07-31T14:56:50.975Z</time>
      </trkpt>
      <trkpt lat="50.641" lon="2.79038">
        <ele>16.527996</ele>
        <time>2024-07-31T14:57:10.904Z</time>
      </trkpt>
      <trkpt lat="50.63999" lon="2.7926">
        <ele>16.595366</ele>
        <time>2024-07-31T14:57:36.980Z</time>
      </trkpt>
      <trkpt lat="50.6398" lon="2.79298">
        <ele>16.54466</ele>
        <time>2024-07-31T14:57:41.304Z</time>
      </trkpt>
      <trkpt lat="50.63891" lon="2.79472">
        <ele>16.293629</ele>
        <time>2024-07-31T14:58:01.143Z</time>
      </trkpt>
      <trkpt lat="50.63682" lon="2.79819">
        <ele>15.686622</ele>
        <time>2024-07-31T14:58:43.549Z</time>
      </trkpt>
      <trkpt lat="50.63661" lon="2.79846">
        <ele>15.639621</ele>
        <time>2024-07-31T14:58:47.580Z</time>
      </trkpt>
      <trkpt lat="50.63624" lon="2.79897">
        <ele>15.677113</ele>
        <time>2024-07-31T14:58:54.863Z</time>
      </trkpt>
      <trkpt lat="50.63761" lon="2.80101">
        <ele>15.926276</ele>
        <time>2024-07-31T14:59:24.180Z</time>
      </trkpt>
      <trkpt lat="50.63806" lon="2.80182">
        <ele>16.062061</ele>
        <time>2024-07-31T14:59:34.926Z</time>
      </trkpt>
      <trkpt lat="50.63819" lon="2.80196">
        <ele>16.093313</ele>
        <time>2024-07-31T14:59:37.400Z</time>
      </trkpt>
      <trkpt lat="50.6386" lon="2.80222">
        <ele>16.179982</ele>
        <time>2024-07-31T14:59:44.216Z</time>
      </trkpt>
      <trkpt lat="50.63872" lon="2.80234">
        <ele>16.195514</ele>
        <time>2024-07-31T14:59:46.505Z</time>
      </trkpt>
      <trkpt lat="50.63964" lon="2.80363">
        <ele>16.325189</ele>
        <time>2024-07-31T15:00:05.405Z</time>
      </trkpt>
      <trkpt lat="50.64148" lon="2.80613">
        <ele>16.299739</ele>
        <time>2024-07-31T15:00:41.053Z</time>
      </trkpt>
      <trkpt lat="50.64208" lon="2.80649">
        <ele>16.255863</ele>
        <time>2024-07-31T15:00:50.335Z</time>
      </trkpt>
      <trkpt lat="50.64336" lon="2.80828">
        <ele>16.264187</ele>
        <time>2024-07-31T15:01:15.022Z</time>
      </trkpt>
      <trkpt lat="50.64401" lon="2.80948">
        <ele>16.360736</ele>
        <time>2024-07-31T15:01:30.623Z</time>
      </trkpt>
      <trkpt lat="50.64503" lon="2.81146">
        <ele>16.943623</ele>
        <time>2024-07-31T15:01:57.572Z</time>
      </trkpt>
      <trkpt lat="50.64511" lon="2.81162">
        <ele>16.991807</ele>
        <time>2024-07-31T15:01:59.750Z</time>
      </trkpt>
      <trkpt lat="50.64613" lon="2.81292">
        <ele>17.064811</ele>
        <time>2024-07-31T15:02:19.867Z</time>
      </trkpt>
      <trkpt lat="50.64667" lon="2.81361">
        <ele>17.060395</ele>
        <time>2024-07-31T15:02:29.665Z</time>
      </trkpt>
      <trkpt lat="50.64734" lon="2.8148">
        <ele>16.849072</ele>
        <time>2024-07-31T15:02:43.743Z</time>
      </trkpt>
      <trkpt lat="50.64755" lon="2.81554">
        <ele>16.742378</ele>
        <time>2024-07-31T15:02:50.903Z</time>
      </trkpt>
      <trkpt lat="50.64763" lon="2.81571">
        <ele>16.713451</ele>
        <time>2024-07-31T15:02:52.849Z</time>
      </trkpt>
      <trkpt lat="50.64776" lon="2.81587">
        <ele>16.700405</ele>
        <time>2024-07-31T15:02:55.083Z</time>
      </trkpt>
      <trkpt lat="50.64911" lon="2.81682">
        <ele>16.602297</ele>
        <time>2024-07-31T15:03:16.571Z</time>
      </trkpt>
      <trkpt lat="50.64931" lon="2.81709">
        <ele>16.600052</ele>
        <time>2024-07-31T15:03:20.584Z</time>
      </trkpt>
      <trkpt lat="50.65004" lon="2.81822">
        <ele>16.72144</ele>
        <time>2024-07-31T15:03:36.195Z</time>
      </trkpt>
      <trkpt lat="50.65046" lon="2.8188">
        <ele>16.787456</ele>
        <time>2024-07-31T15:03:44.803Z</time>
      </trkpt>
      <trkpt lat="50.65067" lon="2.81844">
        <ele>16.813527</ele>
        <time>2024-07-31T15:03:51.277Z</time>
      </trkpt>
      <trkpt lat="50.65046" lon="2.8188">
        <ele>16.831464</ele>
        <time>2024-07-31T15:03:57.727Z</time>
      </trkpt>
      <trkpt lat="50.65163" lon="2.82046">
        <ele>16.925911</ele>
        <time>2024-07-31T15:04:21.356Z</time>
      </trkpt>
      <trkpt lat="50.65276" lon="2.82213">
        <ele>17.037587</ele>
        <time>2024-07-31T15:04:44.491Z</time>
      </trkpt>
      <trkpt lat="50.65356" lon="2.82379">
        <ele>17.370939</ele>
        <time>2024-07-31T15:05:05.428Z</time>
      </trkpt>
      <trkpt lat="50.65391" lon="2.82434">
        <ele>17.495284</ele>
        <time>2024-07-31T15:05:13.600Z</time>
      </trkpt>
      <trkpt lat="50.6545" lon="2.82526">
        <ele>17.677541</ele>
        <time>2024-07-31T15:05:26.909Z</time>
      </trkpt>
      <trkpt lat="50.65489" lon="2.82596">
        <ele>17.808774</ele>
        <time>2024-07-31T15:05:36.251Z</time>
      </trkpt>
      <trkpt lat="50.65475" lon="2.82625">
        <ele>17.861488</ele>
        <time>2024-07-31T15:05:39.838Z</time>
      </trkpt>
      <trkpt lat="50.65417" lon="2.82722">
        <ele>17.894311</ele>
        <time>2024-07-31T15:05:52.169Z</time>
      </trkpt>
      <trkpt lat="50.65365" lon="2.82817">
        <ele>17.903677</ele>
        <time>2024-07-31T15:06:03.926Z</time>
      </trkpt>
      <trkpt lat="50.65318" lon="2.82909">
        <ele>17.959552</ele>
        <time>2024-07-31T15:06:15.128Z</time>
      </trkpt>
      <trkpt lat="50.65302" lon="2.82943">
        <ele>17.989434</ele>
        <time>2024-07-31T15:06:19.240Z</time>
      </trkpt>
      <trkpt lat="50.65297" lon="2.82951">
        <ele>17.997142</ele>
        <time>2024-07-31T15:06:20.291Z</time>
      </trkpt>
      <trkpt lat="50.65247" lon="2.83049">
        <ele>18.085277</ele>
        <time>2024-07-31T15:06:32.742Z</time>
      </trkpt>
      <trkpt lat="50.65151" lon="2.83204">
        <ele>18.106201</ele>
        <time>2024-07-31T15:06:53.509Z</time>
      </trkpt>
      <trkpt lat="50.65126" lon="2.83243">
        <ele>18.106201</ele>
        <time>2024-07-31T15:06:58.380Z</time>
      </trkpt>
      <trkpt lat="50.65071" lon="2.83117">
        <ele>18.106201</ele>
        <time>2024-07-31T15:07:11.750Z</time>
      </trkpt>
      <trkpt lat="50.65063" lon="2.83126">
        <ele>18.106201</ele>
        <time>2024-07-31T15:07:22.329Z</time>
      </trkpt>
    </trkseg>
  </trk>
</gpx>